Observation data for Sterling City on 02/24/2021      Previous  Date  Next       Current Mesonet Observations  Soil Data  Daily Summary Page  Observations in Plain Language
KSC1 240600Z 19012G17KT 16/10 A2992 RMK A01 T01570101  RH  069%=      5-min Rain = 0
KSC1 240601Z 19010KT 16/10 A2992 RMK A01 T01570101  RH  069%=      5-min Rain = 0
KSC1 240602Z 19012KT 16/10 A2991 RMK A01 T01580101  RH  069%=      5-min Rain = 0
KSC1 240603Z 20011KT 16/10 A2992 RMK A01 T01580101  RH  069%=      5-min Rain = 0
KSC1 240604Z 19011KT 16/10 A2992 RMK A01 T01580101  RH  069%=      5-min Rain = 0
KSC1 240605Z 19009G16KT 16/10 A2992 RMK A01 T01580101  RH  069%=      5-min Rain = 0
KSC1 240606Z 19013KT 16/10 A2992 RMK A01 T01580101  RH  069%=      5-min Rain = 0
KSC1 240607Z 19014KT 16/10 A2991 RMK A01 T01590102  RH  069%=      5-min Rain = 0
KSC1 240608Z 19011KT 16/10 A2992 RMK A01 T01600102  RH  069%=      5-min Rain = 0
KSC1 240609Z 20011KT 16/10 A2992 RMK A01 T01610102  RH  068%=      5-min Rain = 0
KSC1 240610Z 20011KT 16/10 A2992 RMK A01 T01610102  RH  068%=      5-min Rain = 0
KSC1 240611Z 20011KT 16/10 A2992 RMK A01 T01600102  RH  068%=      5-min Rain = 0
KSC1 240612Z 20009KT 16/10 A2992 RMK A01 T01590101  RH  069%=      5-min Rain = 0
KSC1 240613Z 20009KT 16/10 A2992 RMK A01 T01580101  RH  069%=      5-min Rain = 0
KSC1 240614Z 20010KT 16/10 A2992 RMK A01 T01570101  RH  069%=      5-min Rain = 0
KSC1 240615Z 20009G14KT 16/10 A2992 RMK A01 T01570102  RH  070%=      5-min Rain = 0
KSC1 240616Z 20011KT 16/10 A2992 RMK A01 T01570102  RH  070%=      5-min Rain = 0
KSC1 240617Z 20011KT 16/10 A2992 RMK A01 T01570102  RH  070%=      5-min Rain = 0
KSC1 240618Z 19012G18KT 16/10 A2992 RMK A01 T01570102  RH  070%=      5-min Rain = 0
KSC1 240619Z 19009KT 16/10 A2992 RMK A01 T01570102  RH  070%=      5-min Rain = 0
KSC1 240620Z 20010KT 16/10 A2992 RMK A01 T01570102  RH  070%=      5-min Rain = 0
KSC1 240621Z 19010G15KT 16/10 A2992 RMK A01 T01570102  RH  070%=      5-min Rain = 0
KSC1 240622Z 19012KT 16/10 A2991 RMK A01 T01570102  RH  070%=      5-min Rain = 0
KSC1 240623Z 19012KT 16/10 A2991 RMK A01 T01570103  RH  070%=      5-min Rain = 0
KSC1 240624Z 20012G17KT 16/10 A2991 RMK A01 T01580103  RH  070%=      5-min Rain = 0
KSC1 240625Z 19013KT 16/10 A2991 RMK A01 T01580103  RH  070%=      5-min Rain = 0
KSC1 240626Z 19010KT 16/10 A2991 RMK A01 T01590103  RH  070%=      5-min Rain = 0
KSC1 240627Z 20010KT 16/10 A2991 RMK A01 T01590103  RH  069%=      5-min Rain = 0
KSC1 240628Z 20013G18KT 16/10 A2991 RMK A01 T01580103  RH  070%=      5-min Rain = 0
KSC1 240629Z 20011KT 16/10 A2991 RMK A01 T01580103  RH  070%=      5-min Rain = 0
KSC1 240630Z 20013G18KT 16/10 A2991 RMK A01 T01580103  RH  070%=      5-min Rain = 0
KSC1 240631Z 20011KT 16/10 A2991 RMK A01 T01590104  RH  070%=      5-min Rain = 0
KSC1 240632Z 19011KT 16/10 A2991 RMK A01 T01580104  RH  070%=      5-min Rain = 0
KSC1 240633Z 19013KT 16/10 A2991 RMK A01 T01580104  RH  070%=      5-min Rain = 0
KSC1 240634Z 19013KT 16/10 A2991 RMK A01 T01590104  RH  070%=      5-min Rain = 0
KSC1 240635Z 18015KT 16/10 A2991 RMK A01 T01590103  RH  070%=      5-min Rain = 0
KSC1 240636Z 18015KT 16/10 A2991 RMK A01 T01600104  RH  070%=      5-min Rain = 0
KSC1 240637Z 19012KT 16/10 A2991 RMK A01 T01610104  RH  069%=      5-min Rain = 0
KSC1 240638Z 19015KT 16/10 A2991 RMK A01 T01610104  RH  069%=      5-min Rain = 0
KSC1 240639Z 19012KT 16/10 A2991 RMK A01 T01610104  RH  069%=      5-min Rain = 0
KSC1 240640Z 19013KT 16/10 A2991 RMK A01 T01610104  RH  069%=      5-min Rain = 0
KSC1 240641Z 19015G20KT 16/10 A2991 RMK A01 T01610104  RH  069%=      5-min Rain = 0
KSC1 240642Z 18014KT 16/10 A2991 RMK A01 T01610104  RH  069%=      5-min Rain = 0
KSC1 240643Z 19014KT 16/10 A2991 RMK A01 T01610104  RH  069%=      5-min Rain = 0
KSC1 240644Z 19013KT 16/10 A2991 RMK A01 T01610104  RH  069%=      5-min Rain = 0
KSC1 240645Z 19014KT 16/10 A2991 RMK A01 T01610104  RH  069%=      5-min Rain = 0
KSC1 240646Z 19015KT 16/10 A2991 RMK A01 T01610104  RH  069%=      5-min Rain = 0
KSC1 240647Z 19014KT 16/10 A2991 RMK A01 T01610104  RH  069%=      5-min Rain = 0
KSC1 240648Z 18013KT 16/10 A2991 RMK A01 T01610104  RH  069%=      5-min Rain = 0
KSC1 240649Z 18012KT 16/10 A2991 RMK A01 T01610104  RH  069%=      5-min Rain = 0
KSC1 240650Z 19013KT 16/10 A2991 RMK A01 T01610104  RH  069%=      5-min Rain = 0
KSC1 240651Z 19013G18KT 16/10 A2991 RMK A01 T01600104  RH  069%=      5-min Rain = 0
KSC1 240652Z 19010KT 16/10 A2991 RMK A01 T01600103  RH  069%=      5-min Rain = 0
KSC1 240653Z 18013KT 16/10 A2991 RMK A01 T01590103  RH  069%=      5-min Rain = 0
KSC1 240654Z 19011KT 16/10 A2991 RMK A01 T01580103  RH  070%=      5-min Rain = 0
KSC1 240655Z 19011KT 16/10 A2991 RMK A01 T01580103  RH  070%=      5-min Rain = 0
KSC1 240656Z 19010G16KT 16/10 A2991 RMK A01 T01580103  RH  070%=      5-min Rain = 0
KSC1 240657Z 19011KT 16/10 A2991 RMK A01 T01580103  RH  070%=      5-min Rain = 0
KSC1 240658Z 20010G15KT 16/10 A2991 RMK A01 T01570103  RH  070%=      5-min Rain = 0
KSC1 240659Z 20009KT 16/10 A2991 RMK A01 T01570103  RH  070%=      5-min Rain = 0
KSC1 240700Z 19010KT 16/10 A2991 RMK A01 T01570103  RH  070%=      5-min Rain = 0
KSC1 240701Z 19010KT 16/10 A2991 RMK A01 T01570103  RH  070%=      5-min Rain = 0
KSC1 240702Z 19008KT 16/10 A2991 RMK A01 T01570103  RH  070%=      5-min Rain = 0
KSC1 240703Z 20012KT 16/10 A2991 RMK A01 T01560102  RH  070%=      5-min Rain = 0
KSC1 240704Z 19012KT 16/10 A2991 RMK A01 T01560103  RH  071%=      5-min Rain = 0
KSC1 240705Z 20010KT 16/10 A2991 RMK A01 T01560103  RH  071%=      5-min Rain = 0
KSC1 240706Z 20011KT 16/10 A2991 RMK A01 T01560103  RH  071%=      5-min Rain = 0
KSC1 240707Z 20010KT 16/10 A2991 RMK A01 T01560103  RH  071%=      5-min Rain = 0
KSC1 240708Z 20010KT 16/10 A2991 RMK A01 T01550103  RH  071%=      5-min Rain = 0
KSC1 240709Z 20011KT 16/10 A2991 RMK A01 T01550103  RH  071%=      5-min Rain = 0
KSC1 240710Z 21011KT 16/10 A2991 RMK A01 T01550103  RH  071%=      5-min Rain = 0
KSC1 240711Z 20011KT 16/10 A2991 RMK A01 T01550103  RH  071%=      5-min Rain = 0
KSC1 240712Z 20011KT 16/10 A2991 RMK A01 T01550103  RH  071%=      5-min Rain = 0
KSC1 240713Z 20010KT 15/10 A2991 RMK A01 T01540103  RH  071%=      5-min Rain = 0
KSC1 240714Z 20012KT 15/10 A2991 RMK A01 T01540103  RH  072%=      5-min Rain = 0
KSC1 240715Z 20010KT 15/10 A2991 RMK A01 T01540103  RH  072%=      5-min Rain = 0
KSC1 240716Z 20013G18KT 15/10 A2991 RMK A01 T01540103  RH  072%=      5-min Rain = 0
KSC1 240717Z 20012KT 15/10 A2991 RMK A01 T01540103  RH  072%=      5-min Rain = 0
KSC1 240718Z 19012KT 16/10 A2991 RMK A01 T01550103  RH  071%=      5-min Rain = 0
KSC1 240719Z 20013KT 16/10 A2991 RMK A01 T01550103  RH  071%=      5-min Rain = 0
KSC1 240720Z 20012KT 16/10 A2991 RMK A01 T01550103  RH  071%=      5-min Rain = 0
KSC1 240721Z 20015G20KT 16/10 A2991 RMK A01 T01550104  RH  071%=      5-min Rain = 0
KSC1 240722Z 20013KT 16/10 A2991 RMK A01 T01550103  RH  071%=      5-min Rain = 0
KSC1 240723Z 20011KT 16/10 A2991 RMK A01 T01560104  RH  071%=      5-min Rain = 0
KSC1 240724Z 21013KT 16/10 A2991 RMK A01 T01550103  RH  071%=      5-min Rain = 0
KSC1 240725Z 21010KT 16/10 A2991 RMK A01 T01550103  RH  071%=      5-min Rain = 0
KSC1 240726Z 21011KT 15/10 A2992 RMK A01 T01540103  RH  071%=      5-min Rain = 0
KSC1 240727Z 21010KT 15/10 A2992 RMK A01 T01540104  RH  072%=      5-min Rain = 0
KSC1 240728Z 21011G16KT 15/10 A2992 RMK A01 T01540103  RH  072%=      5-min Rain = 0
KSC1 240729Z 22014KT 15/10 A2992 RMK A01 T01540104  RH  072%=      5-min Rain = 0
KSC1 240730Z 21012G17KT 16/10 A2992 RMK A01 T01550104  RH  071%=      5-min Rain = 0
KSC1 240731Z 20011KT 16/10 A2992 RMK A01 T01560104  RH  071%=      5-min Rain = 0
KSC1 240732Z 20013G19KT 16/10 A2992 RMK A01 T01550104  RH  071%=      5-min Rain = 0
KSC1 240733Z 20014KT 16/10 A2992 RMK A01 T01550104  RH  072%=      5-min Rain = 0
KSC1 240734Z 19011KT 16/10 A2992 RMK A01 T01560104  RH  071%=      5-min Rain = 0
KSC1 240735Z 19014KT 16/10 A2992 RMK A01 T01560104  RH  071%=      5-min Rain = 0
KSC1 240736Z 19012G18KT 16/10 A2992 RMK A01 T01550103  RH  071%=      5-min Rain = 0
KSC1 240737Z 19012G18KT 16/10 A2992 RMK A01 T01550104  RH  071%=      5-min Rain = 0
KSC1 240738Z 20011KT 15/10 A2992 RMK A01 T01540103  RH  072%=      5-min Rain = 0
KSC1 240739Z 20010G15KT 15/10 A2992 RMK A01 T01540103  RH  072%=      5-min Rain = 0
KSC1 240740Z 21008KT 15/10 A2992 RMK A01 T01540103  RH  072%=      5-min Rain = 0
KSC1 240741Z 21009KT 15/10 A2992 RMK A01 T01530103  RH  072%=      5-min Rain = 0
KSC1 240742Z 21011KT 15/10 A2992 RMK A01 T01520103  RH  072%=      5-min Rain = 0
KSC1 240743Z 21011KT 15/10 A2992 RMK A01 T01520103  RH  073%=      5-min Rain = 0
KSC1 240744Z 20012KT 15/10 A2992 RMK A01 T01520103  RH  072%=      5-min Rain = 0
KSC1 240745Z 20012KT 15/10 A2992 RMK A01 T01530103  RH  072%=      5-min Rain = 0
KSC1 240746Z 20014KT 15/10 A2992 RMK A01 T01530103  RH  072%=      5-min Rain = 0
KSC1 240747Z 19011KT 15/10 A2992 RMK A01 T01540103  RH  072%=      5-min Rain = 0
KSC1 240748Z 19012KT 15/10 A2992 RMK A01 T01530103  RH  072%=      5-min Rain = 0
KSC1 240749Z 20010KT 15/10 A2992 RMK A01 T01530103  RH  072%=      5-min Rain = 0
KSC1 240750Z 20011KT 15/10 A2992 RMK A01 T01530103  RH  072%=      5-min Rain = 0
KSC1 240751Z 21011KT 15/10 A2992 RMK A01 T01520103  RH  072%=      5-min Rain = 0
KSC1 240752Z 21009KT 15/10 A2992 RMK A01 T01520103  RH  073%=      5-min Rain = 0
KSC1 240753Z 21011KT 15/10 A2992 RMK A01 T01520103  RH  073%=      5-min Rain = 0
KSC1 240754Z 21011KT 15/10 A2992 RMK A01 T01520103  RH  073%=      5-min Rain = 0
KSC1 240755Z 21011KT 15/10 A2992 RMK A01 T01530103  RH  072%=      5-min Rain = 0
KSC1 240756Z 21013KT 15/10 A2992 RMK A01 T01530103  RH  072%=      5-min Rain = 0
KSC1 240757Z 22012G17KT 15/10 A2992 RMK A01 T01540104  RH  072%=      5-min Rain = 0
KSC1 240758Z 22010KT 16/10 A2992 RMK A01 T01550104  RH  072%=      5-min Rain = 0
KSC1 240759Z 22012KT 16/10 A2992 RMK A01 T01550103  RH  071%=      5-min Rain = 0
KSC1 240800Z 22011KT 16/10 A2992 RMK A01 T01550103  RH  071%=      5-min Rain = 0
KSC1 240801Z 22012KT 16/10 A2992 RMK A01 T01550103  RH  071%=      5-min Rain = 0
KSC1 240802Z 22009KT 16/10 A2992 RMK A01 T01560103  RH  071%=      5-min Rain = 0
KSC1 240803Z 22009KT 16/10 A2992 RMK A01 T01550103  RH  071%=      5-min Rain = 0
KSC1 240804Z 21012KT 16/10 A2992 RMK A01 T01550103  RH  071%=      5-min Rain = 0
KSC1 240805Z 21011G16KT 16/10 A2992 RMK A01 T01550103  RH  071%=      5-min Rain = 0
KSC1 240806Z 21011KT 16/10 A2992 RMK A01 T01550103  RH  071%=      5-min Rain = 0
KSC1 240807Z 21009KT 16/10 A2992 RMK A01 T01550103  RH  071%=      5-min Rain = 0
KSC1 240808Z 21010KT 16/10 A2992 RMK A01 T01550103  RH  071%=      5-min Rain = 0
KSC1 240809Z 21009KT 16/10 A2992 RMK A01 T01550103  RH  071%=      5-min Rain = 0
KSC1 240810Z 21009KT 16/10 A2992 RMK A01 T01550103  RH  071%=      5-min Rain = 0
KSC1 240811Z 21013G19KT 16/10 A2992 RMK A01 T01550103  RH  071%=      5-min Rain = 0
KSC1 240812Z 20012KT 16/10 A2992 RMK A01 T01560103  RH  071%=      5-min Rain = 0
KSC1 240813Z 21011KT 16/10 A2992 RMK A01 T01560104  RH  071%=      5-min Rain = 0
KSC1 240814Z 21011KT 16/10 A2992 RMK A01 T01560103  RH  071%=      5-min Rain = 0
KSC1 240815Z 20012G17KT 16/10 A2992 RMK A01 T01550103  RH  071%=      5-min Rain = 0
KSC1 240816Z 21013KT 16/10 A2992 RMK A01 T01550103  RH  071%=      5-min Rain = 0
KSC1 240817Z 20011KT 16/10 A2992 RMK A01 T01550103  RH  071%=      5-min Rain = 0
KSC1 240818Z 20012KT 16/10 A2992 RMK A01 T01550103  RH  071%=      5-min Rain = 0
KSC1 240819Z 20009KT 15/10 A2992 RMK A01 T01540103  RH  071%=      5-min Rain = 0
KSC1 240820Z 21012KT 15/10 A2992 RMK A01 T01530103  RH  072%=      5-min Rain = 0
KSC1 240821Z 20012KT 15/10 A2992 RMK A01 T01530103  RH  072%=      5-min Rain = 0
KSC1 240822Z 20011G16KT 15/10 A2992 RMK A01 T01530103  RH  072%=      5-min Rain = 0
KSC1 240823Z 20014KT 15/10 A2992 RMK A01 T01530103  RH  072%=      5-min Rain = 0
KSC1 240824Z 21011KT 15/10 A2992 RMK A01 T01540103  RH  072%=      5-min Rain = 0
KSC1 240825Z 21012KT 15/10 A2992 RMK A01 T01540103  RH  071%=      5-min Rain = 0
KSC1 240826Z 21010G16KT 15/10 A2992 RMK A01 T01540103  RH  071%=      5-min Rain = 0
KSC1 240827Z 21013KT 15/10 A2992 RMK A01 T01540103  RH  072%=      5-min Rain = 0
KSC1 240828Z 21011KT 15/10 A2992 RMK A01 T01540103  RH  072%=      5-min Rain = 0
KSC1 240829Z 21011KT 15/10 A2992 RMK A01 T01540103  RH  071%=      5-min Rain = 0
KSC1 240830Z 21012KT 16/10 A2992 RMK A01 T01550103  RH  071%=      5-min Rain = 0
KSC1 240831Z 21011KT 16/10 A2992 RMK A01 T01550103  RH  071%=      5-min Rain = 0
KSC1 240832Z 20012KT 16/10 A2992 RMK A01 T01550103  RH  071%=      5-min Rain = 0
KSC1 240833Z 21011KT 15/10 A2992 RMK A01 T01540103  RH  071%=      5-min Rain = 0
KSC1 240834Z 21013KT 15/10 A2992 RMK A01 T01530103  RH  072%=      5-min Rain = 0
KSC1 240835Z 21013KT 15/10 A2992 RMK A01 T01540103  RH  072%=      5-min Rain = 0
KSC1 240836Z 20012KT 15/10 A2992 RMK A01 T01540103  RH  072%=      5-min Rain = 0
KSC1 240837Z 21011KT 15/10 A2992 RMK A01 T01530103  RH  072%=      5-min Rain = 0
KSC1 240838Z 21011KT 15/10 A2992 RMK A01 T01520102  RH  072%=      5-min Rain = 0
KSC1 240839Z 21012KT 15/10 A2992 RMK A01 T01530103  RH  072%=      5-min Rain = 0
KSC1 240840Z 20010KT 15/10 A2992 RMK A01 T01520103  RH  072%=      5-min Rain = 0
KSC1 240841Z 21009G15KT 15/10 A2992 RMK A01 T01510102  RH  072%=      5-min Rain = 0
KSC1 240842Z 20011KT 15/10 A2992 RMK A01 T01500102  RH  073%=      5-min Rain = 0
KSC1 240843Z 20010KT 15/10 A2992 RMK A01 T01500102  RH  073%=      5-min Rain = 0
KSC1 240844Z 20011KT 15/10 A2992 RMK A01 T01500102  RH  073%=      5-min Rain = 0
KSC1 240845Z 20011KT 15/10 A2992 RMK A01 T01500102  RH  073%=      5-min Rain = 0
KSC1 240846Z 21010KT 15/10 A2992 RMK A01 T01500102  RH  073%=      5-min Rain = 0
KSC1 240847Z 22010KT 15/10 A2992 RMK A01 T01500102  RH  073%=      5-min Rain = 0
KSC1 240848Z 21010KT 15/10 A2992 RMK A01 T01500102  RH  073%=      5-min Rain = 0
KSC1 240849Z 21011G16KT 15/10 A2992 RMK A01 T01500102  RH  073%=      5-min Rain = 0
KSC1 240850Z 21011KT 15/10 A2992 RMK A01 T01500102  RH  073%=      5-min Rain = 0
KSC1 240851Z 21011KT 15/10 A2992 RMK A01 T01500103  RH  073%=      5-min Rain = 0
KSC1 240852Z 21011KT 15/10 A2992 RMK A01 T01500103  RH  073%=      5-min Rain = 0
KSC1 240853Z 20011KT 15/10 A2992 RMK A01 T01500103  RH  073%=      5-min Rain = 0
KSC1 240854Z 20010KT 15/10 A2992 RMK A01 T01500102  RH  073%=      5-min Rain = 0
KSC1 240855Z 21012KT 15/10 A2992 RMK A01 T01490102  RH  074%=      5-min Rain = 0
KSC1 240856Z 21010KT 15/10 A2992 RMK A01 T01490103  RH  074%=      5-min Rain = 0
KSC1 240857Z 21011KT 15/10 A2992 RMK A01 T01490102  RH  074%=      5-min Rain = 0
KSC1 240858Z 21010KT 15/10 A2992 RMK A01 T01490102  RH  074%=      5-min Rain = 0
KSC1 240859Z 21010KT 15/10 A2992 RMK A01 T01490103  RH  074%=      5-min Rain = 0
KSC1 240900Z 21009KT 15/10 A2992 RMK A01 T01480102  RH  074%=      5-min Rain = 0
KSC1 240901Z 21011KT 15/10 A2992 RMK A01 T01470102  RH  074%=      5-min Rain = 0
KSC1 240902Z 20012KT 15/10 A2992 RMK A01 T01470102  RH  075%=      5-min Rain = 0
KSC1 240903Z 21010G15KT 15/10 A2992 RMK A01 T01460102  RH  075%=      5-min Rain = 0
KSC1 240904Z 21011KT 15/10 A2992 RMK A01 T01460102  RH  075%=      5-min Rain = 0
KSC1 240905Z 21011KT 15/10 A2992 RMK A01 T01460102  RH  075%=      5-min Rain = 0
KSC1 240906Z 21010KT 15/10 A2992 RMK A01 T01460102  RH  075%=      5-min Rain = 0
KSC1 240907Z 21010KT 15/10 A2992 RMK A01 T01460102  RH  075%=      5-min Rain = 0
KSC1 240908Z 21012KT 15/10 A2992 RMK A01 T01460102  RH  075%=      5-min Rain = 0
KSC1 240909Z 21011KT 15/10 A2992 RMK A01 T01460103  RH  075%=      5-min Rain = 0
KSC1 240910Z 21009KT 15/10 A2992 RMK A01 T01460102  RH  075%=      5-min Rain = 0
KSC1 240911Z 21010KT 15/10 A2992 RMK A01 T01460102  RH  075%=      5-min Rain = 0
KSC1 240912Z 21010KT 15/10 A2992 RMK A01 T01450102  RH  075%=      5-min Rain = 0
KSC1 240913Z 22009KT 15/10 A2992 RMK A01 T01450102  RH  075%=      5-min Rain = 0
KSC1 240914Z 22010KT 14/10 A2992 RMK A01 T01440102  RH  076%=      5-min Rain = 0
KSC1 240915Z 22011KT 14/10 A2992 RMK A01 T01440102  RH  076%=      5-min Rain = 0
KSC1 240916Z 22011KT 14/10 A2992 RMK A01 T01440102  RH  076%=      5-min Rain = 0
KSC1 240917Z 21012KT 14/10 A2992 RMK A01 T01440102  RH  076%=      5-min Rain = 0
KSC1 240918Z 22011KT 14/10 A2992 RMK A01 T01440102  RH  076%=      5-min Rain = 0
KSC1 240919Z 21009KT 14/10 A2992 RMK A01 T01440101  RH  076%=      5-min Rain = 0
KSC1 240920Z 21011KT 14/10 A2992 RMK A01 T01430101  RH  076%=      5-min Rain = 0
KSC1 240921Z 20012KT 14/10 A2992 RMK A01 T01430101  RH  076%=      5-min Rain = 0
KSC1 240922Z 20009KT 14/10 A2992 RMK A01 T01420101  RH  076%=      5-min Rain = 0
KSC1 240923Z 21011KT 14/10 A2992 RMK A01 T01410100  RH  076%=      5-min Rain = 0
KSC1 240924Z 21011KT 14/10 A2992 RMK A01 T01400101  RH  077%=      5-min Rain = 0
KSC1 240925Z 21010KT 14/10 A2992 RMK A01 T01410101  RH  077%=      5-min Rain = 0
KSC1 240926Z 21009KT 14/10 A2992 RMK A01 T01400100  RH  077%=      5-min Rain = 0
KSC1 240927Z 22009KT 14/10 A2992 RMK A01 T01390100  RH  077%=      5-min Rain = 0
KSC1 240928Z 21009KT 14/10 A2992 RMK A01 T01390101  RH  078%=      5-min Rain = 0
KSC1 240929Z 21008KT 14/10 A2992 RMK A01 T01390101  RH  078%=      5-min Rain = 0
KSC1 240930Z 21010KT 14/10 A2992 RMK A01 T01390101  RH  078%=      5-min Rain = 0
KSC1 240931Z 21011KT 14/10 A2992 RMK A01 T01390101  RH  078%=      5-min Rain = 0
KSC1 240932Z 22008KT 14/10 A2992 RMK A01 T01390102  RH  078%=      5-min Rain = 0
KSC1 240933Z 21009KT 14/10 A2992 RMK A01 T01390101  RH  078%=      5-min Rain = 0
KSC1 240934Z 21007KT 14/10 A2992 RMK A01 T01390101  RH  078%=      5-min Rain = 0
KSC1 240935Z 21008KT 14/10 A2992 RMK A01 T01390101  RH  078%=      5-min Rain = 0
KSC1 240936Z 20010KT 14/10 A2992 RMK A01 T01390102  RH  078%=      5-min Rain = 0
KSC1 240937Z 21010KT 14/10 A2992 RMK A01 T01390102  RH  078%=      5-min Rain = 0
KSC1 240938Z 21009KT 14/10 A2992 RMK A01 T01390102  RH  078%=      5-min Rain = 0
KSC1 240939Z 20009KT 14/10 A2992 RMK A01 T01390102  RH  078%=      5-min Rain = 0
KSC1 240940Z 20011KT 14/10 A2992 RMK A01 T01380101  RH  078%=      5-min Rain = 0
KSC1 240941Z 20010KT 14/10 A2992 RMK A01 T01380102  RH  079%=      5-min Rain = 0
KSC1 240942Z 21012KT 14/10 A2992 RMK A01 T01380102  RH  078%=      5-min Rain = 0
KSC1 240943Z 20011KT 14/10 A2992 RMK A01 T01380102  RH  078%=      5-min Rain = 0
KSC1 240944Z 20010KT 14/10 A2992 RMK A01 T01380101  RH  078%=      5-min Rain = 0
KSC1 240945Z 20011KT 14/10 A2992 RMK A01 T01380102  RH  079%=      5-min Rain = 0
KSC1 240946Z 21009KT 14/10 A2992 RMK A01 T01380102  RH  079%=      5-min Rain = 0
KSC1 240947Z 21008KT 14/10 A2992 RMK A01 T01390102  RH  078%=      5-min Rain = 0
KSC1 240948Z 21008KT 14/10 A2992 RMK A01 T01380101  RH  078%=      5-min Rain = 0
KSC1 240949Z 21010KT 14/10 A2992 RMK A01 T01380102  RH  079%=      5-min Rain = 0
KSC1 240950Z 21009KT 14/10 A2992 RMK A01 T01380102  RH  079%=      5-min Rain = 0
KSC1 240951Z 20010KT 14/10 A2992 RMK A01 T01380102  RH  079%=      5-min Rain = 0
KSC1 240952Z 21010KT 14/10 A2992 RMK A01 T01380102  RH  079%=      5-min Rain = 0
KSC1 240953Z 21010KT 14/10 A2992 RMK A01 T01390103  RH  079%=      5-min Rain = 0
KSC1 240954Z 21011KT 14/10 A2992 RMK A01 T01400103  RH  078%=      5-min Rain = 0
KSC1 240955Z 21009KT 14/10 A2992 RMK A01 T01400103  RH  078%=      5-min Rain = 0
KSC1 240956Z 21008KT 14/10 A2992 RMK A01 T01410103  RH  078%=      5-min Rain = 0
KSC1 240957Z 21008KT 14/10 A2993 RMK A01 T01410103  RH  078%=      5-min Rain = 0
KSC1 240958Z 21009KT 14/10 A2993 RMK A01 T01410103  RH  078%=      5-min Rain = 0
KSC1 240959Z 21008KT 14/10 A2993 RMK A01 T01410103  RH  078%=      5-min Rain = 0
KSC1 241000Z 21009KT 14/10 A2993 RMK A01 T01410103  RH  078%=      5-min Rain = 0
KSC1 241001Z 21008KT 14/10 A2993 RMK A01 T01410103  RH  078%=      5-min Rain = 0
KSC1 241002Z 21008KT 14/10 A2993 RMK A01 T01410103  RH  078%=      5-min Rain = 0
KSC1 241003Z 21009KT 14/10 A2993 RMK A01 T01410103  RH  078%=      5-min Rain = 0
KSC1 241004Z 20009KT 14/10 A2993 RMK A01 T01410103  RH  078%=      5-min Rain = 0
KSC1 241005Z 21007KT 14/10 A2993 RMK A01 T01420104  RH  078%=      5-min Rain = 0
KSC1 241006Z 22007KT 14/10 A2993 RMK A01 T01420104  RH  078%=      5-min Rain = 0
KSC1 241007Z 21009KT 14/10 A2993 RMK A01 T01420104  RH  078%=      5-min Rain = 0
KSC1 241008Z 21008KT 14/10 A2994 RMK A01 T01420104  RH  078%=      5-min Rain = 0
KSC1 241009Z 22007KT 14/10 A2993 RMK A01 T01420104  RH  078%=      5-min Rain = 0
KSC1 241010Z 21006KT 14/10 A2994 RMK A01 T01420103  RH  077%=      5-min Rain = 0
KSC1 241011Z 21008KT 14/10 A2994 RMK A01 T01420103  RH  077%=      5-min Rain = 0
KSC1 241012Z 21008KT 14/10 A2994 RMK A01 T01420103  RH  078%=      5-min Rain = 0
KSC1 241013Z 21007KT 14/10 A2994 RMK A01 T01420103  RH  078%=      5-min Rain = 0
KSC1 241014Z 21007KT 14/10 A2994 RMK A01 T01420103  RH  078%=      5-min Rain = 0
KSC1 241015Z 21006KT 14/10 A2994 RMK A01 T01420103  RH  077%=      5-min Rain = 0
KSC1 241016Z 22006KT 14/10 A2994 RMK A01 T01420103  RH  077%=      5-min Rain = 0
KSC1 241017Z 21006KT 14/10 A2994 RMK A01 T01410102  RH  077%=      5-min Rain = 0
KSC1 241018Z 22006KT 14/10 A2994 RMK A01 T01410102  RH  078%=      5-min Rain = 0
KSC1 241019Z 22005KT 14/10 A2994 RMK A01 T01400102  RH  078%=      5-min Rain = 0
KSC1 241020Z 21005KT 14/10 A2994 RMK A01 T01400102  RH  078%=      5-min Rain = 0
KSC1 241021Z 20006KT 14/10 A2994 RMK A01 T01400102  RH  078%=      5-min Rain = 0
KSC1 241022Z 21008KT 14/10 A2994 RMK A01 T01390102  RH  078%=      5-min Rain = 0
KSC1 241023Z 20007KT 14/10 A2994 RMK A01 T01390103  RH  078%=      5-min Rain = 0
KSC1 241024Z 20007KT 14/10 A2993 RMK A01 T01390103  RH  079%=      5-min Rain = 0
KSC1 241025Z 20007KT 14/10 A2993 RMK A01 T01390103  RH  079%=      5-min Rain = 0
KSC1 241026Z 20008KT 14/10 A2993 RMK A01 T01390102  RH  079%=      5-min Rain = 0
KSC1 241027Z 20008KT 14/10 A2993 RMK A01 T01390103  RH  079%=      5-min Rain = 0
KSC1 241028Z 20008KT 14/10 A2993 RMK A01 T01390103  RH  079%=      5-min Rain = 0
KSC1 241029Z 20008KT 14/10 A2993 RMK A01 T01390102  RH  078%=      5-min Rain = 0
KSC1 241030Z 20008KT 14/10 A2993 RMK A01 T01390102  RH  078%=      5-min Rain = 0
KSC1 241031Z 21007KT 14/10 A2993 RMK A01 T01390102  RH  079%=      5-min Rain = 0
KSC1 241032Z 21008KT 14/10 A2993 RMK A01 T01380102  RH  079%=      5-min Rain = 0
KSC1 241033Z 22008KT 14/10 A2993 RMK A01 T01380102  RH  079%=      5-min Rain = 0
KSC1 241034Z 21007KT 14/10 A2993 RMK A01 T01380102  RH  079%=      5-min Rain = 0
KSC1 241035Z 22007KT 14/10 A2993 RMK A01 T01380102  RH  079%=      5-min Rain = 0
KSC1 241036Z 22004KT 14/10 A2994 RMK A01 T01380102  RH  079%=      5-min Rain = 0
KSC1 241037Z 24004KT 14/10 A2994 RMK A01 T01380101  RH  079%=      5-min Rain = 0
KSC1 241038Z 29005KT 14/10 A2994 RMK A01 T01370101  RH  079%=      5-min Rain = 0
KSC1 241039Z 33006KT 14/10 A2995 RMK A01 T01360100  RH  079%=      5-min Rain = 0
KSC1 241040Z 35006KT 13/10 A2995 RMK A01 T01340098  RH  079%=      5-min Rain = 0
KSC1 241041Z 35006KT 13/10 A2995 RMK A01 T01320098  RH  080%=      5-min Rain = 0
KSC1 241042Z 36004KT 13/10 A2995 RMK A01 T01310099  RH  081%=      5-min Rain = 0
KSC1 241043Z 34005KT 13/10 A2995 RMK A01 T01300098  RH  081%=      5-min Rain = 0
KSC1 241044Z 35005KT 13/10 A2995 RMK A01 T01300098  RH  081%=      5-min Rain = 0
KSC1 241045Z 34007KT 13/10 A2995 RMK A01 T01280097  RH  081%=      5-min Rain = 0
KSC1 241046Z 34005KT 13/10 A2995 RMK A01 T01290098  RH  082%=      5-min Rain = 0
KSC1 241047Z 31006KT 13/10 A2995 RMK A01 T01290098  RH  081%=      5-min Rain = 0
KSC1 241048Z 33005KT 13/10 A2995 RMK A01 T01300099  RH  081%=      5-min Rain = 0
KSC1 241049Z 34004KT 13/10 A2995 RMK A01 T01310099  RH  081%=      5-min Rain = 0
KSC1 241050Z 34003KT 13/10 A2995 RMK A01 T01310098  RH  080%=      5-min Rain = 0
KSC1 241051Z 30004KT 13/10 A2995 RMK A01 T01300098  RH  081%=      5-min Rain = 0
KSC1 241052Z 30004KT 13/10 A2995 RMK A01 T01310100  RH  082%=      5-min Rain = 0
KSC1 241053Z 32005KT 13/10 A2995 RMK A01 T01320099  RH  081%=      5-min Rain = 0
KSC1 241054Z 31004KT 13/10 A2995 RMK A01 T01320099  RH  080%=      5-min Rain = 0
KSC1 241055Z 31003KT 13/10 A2995 RMK A01 T01320099  RH  081%=      5-min Rain = 0
KSC1 241056Z 30003KT 13/10 A2995 RMK A01 T01320099  RH  080%=      5-min Rain = 0
KSC1 241057Z 29003KT 13/10 A2995 RMK A01 T01330100  RH  080%=      5-min Rain = 0
KSC1 241058Z 26004KT 13/10 A2995 RMK A01 T01330099  RH  080%=      5-min Rain = 0
KSC1 241059Z 27003KT 13/10 A2995 RMK A01 T01330098  RH  080%=      5-min Rain = 0
KSC1 241100Z 24002KT 13/10 A2995 RMK A01 T01320098  RH  080%=      5-min Rain = 0
KSC1 241101Z 24004KT 13/10 A2995 RMK A01 T01310098  RH  080%=      5-min Rain = 0
KSC1 241102Z 24003KT 13/10 A2995 RMK A01 T01290097  RH  081%=      5-min Rain = 0
KSC1 241103Z 25004KT 13/10 A2996 RMK A01 T01280096  RH  081%=      5-min Rain = 0
KSC1 241104Z 26004KT 13/10 A2996 RMK A01 T01270097  RH  082%=      5-min Rain = 0
KSC1 241105Z 26005KT 13/09 A2996 RMK A01 T01260094  RH  081%=      5-min Rain = 0
KSC1 241106Z 25005KT 12/10 A2996 RMK A01 T01240096  RH  083%=      5-min Rain = 0
KSC1 241107Z 26005KT 13/10 A2996 RMK A01 T01250098  RH  084%=      5-min Rain = 0
KSC1 241108Z 25004KT 13/10 A2996 RMK A01 T01250098  RH  083%=      5-min Rain = 0
KSC1 241109Z 25005KT 13/10 A2996 RMK A01 T01260099  RH  084%=      5-min Rain = 0
KSC1 241110Z 26004KT 13/10 A2996 RMK A01 T01260098  RH  083%=      5-min Rain = 0
KSC1 241111Z 26004KT 13/10 A2997 RMK A01 T01260097  RH  082%=      5-min Rain = 0
KSC1 241112Z 27005KT 13/10 A2997 RMK A01 T01250097  RH  083%=      5-min Rain = 0
KSC1 241113Z 27005KT 13/10 A2997 RMK A01 T01250098  RH  084%=      5-min Rain = 0
KSC1 241114Z 27005KT 13/10 A2997 RMK A01 T01250098  RH  084%=      5-min Rain = 0
KSC1 241115Z 27005KT 13/10 A2997 RMK A01 T01250097  RH  083%=      5-min Rain = 0
KSC1 241116Z 29005KT 13/10 A2997 RMK A01 T01250097  RH  083%=      5-min Rain = 0
KSC1 241117Z 30007KT 13/10 A2998 RMK A01 T01250097  RH  083%=      5-min Rain = 0
KSC1 241118Z 30007KT 12/10 A2998 RMK A01 T01240097  RH  083%=      5-min Rain = 0
KSC1 241119Z 30007KT 12/10 A2998 RMK A01 T01230095  RH  083%=      5-min Rain = 0
KSC1 241120Z 30007KT 12/09 A2998 RMK A01 T01200094  RH  084%=      5-min Rain = 0
KSC1 241121Z 31007KT 12/09 A2998 RMK A01 T01180093  RH  084%=      5-min Rain = 0
KSC1 241122Z 32007KT 12/09 A2999 RMK A01 T01160092  RH  085%=      5-min Rain = 0
KSC1 241123Z 33007KT 11/09 A2999 RMK A01 T01140092  RH  086%=      5-min Rain = 0
KSC1 241124Z 33009KT 11/10 A2999 RMK A01 T01130095  RH  088%=      5-min Rain = 0
KSC1 241125Z 33008KT 11/10 A2999 RMK A01 T01120096  RH  090%=      5-min Rain = 0
KSC1 241126Z 34006KT 11/10 A2999 RMK A01 T01110096  RH  091%=      5-min Rain = 0
KSC1 241127Z 33005KT 11/10 A2999 RMK A01 T01090097  RH  092%=      5-min Rain = 0
KSC1 241128Z 32005KT 11/10 A2999 RMK A01 T01080099  RH  094%=      5-min Rain = 0
KSC1 241129Z 32005KT 11/10 A30 RMK A01 T01070100  RH  095%=      5-min Rain = 0
KSC1 241130Z 32006KT 11/10 A30 RMK A01 T01060101  RH  096%=      5-min Rain = 0
KSC1 241131Z 30005KT 11/10 A30 RMK A01 T01050101  RH  097%=      5-min Rain = 0
KSC1 241132Z 30005KT 11/10 A30 RMK A01 T01050102  RH  098%=      5-min Rain = 0
KSC1 241133Z 30005KT 11/10 A30 RMK A01 T01050103  RH  099%=      5-min Rain = 0
KSC1 241134Z 29004KT 10/10 A30 RMK A01 T01040102  RH  099%=      5-min Rain = 0
KSC1 241135Z 27004KT 10/10 A30 RMK A01 T01030101  RH  099%=      5-min Rain = 0
KSC1 241136Z 26004KT 10/10 A30 RMK A01 T01020101  RH  099%=      5-min Rain = 0
KSC1 241137Z 27004KT 10/10 A3001 RMK A01 T01010100  RH  099%=      5-min Rain = 0
KSC1 241138Z 27004KT 10/10 A3001 RMK A01 T01000100  RH  100%=      5-min Rain = 0
KSC1 241139Z 25004KT 10/10 A3001 RMK A01 T00990099  RH  100%=      5-min Rain = 0
KSC1 241140Z 22005KT 10/10 A30 RMK A01 T00970097  RH  100%=      5-min Rain = 0
KSC1 241141Z 22005KT 10/10 A30 RMK A01 T00960096  RH  100%=      5-min Rain = 0
KSC1 241142Z 22004KT 10/10 A30 RMK A01 T00950095  RH  100%=      5-min Rain = 0
KSC1 241143Z 23003KT 10/10 A30 RMK A01 T00950095  RH  100%=      5-min Rain = 0
KSC1 241144Z 26002KT 09/09 A30 RMK A01 T00940094  RH  100%=      5-min Rain = 0
KSC1 241145Z 30002KT 09/09 A3001 RMK A01 T00940094  RH  100%=      5-min Rain = 0
KSC1 241146Z 30004KT 09/09 A3001 RMK A01 T00930093  RH  100%=      5-min Rain = 0
KSC1 241147Z 31005KT 09/09 A3001 RMK A01 T00930093  RH  100%=      5-min Rain = 0
KSC1 241148Z 31005KT 09/09 A3001 RMK A01 T00920092  RH  100%=      5-min Rain = 0
KSC1 241149Z 30004KT 09/09 A3001 RMK A01 T00920092  RH  100%=      5-min Rain = 0
KSC1 241150Z 29004KT 09/09 A3001 RMK A01 T00920092  RH  100%=      5-min Rain = 0
KSC1 241151Z 27004KT 09/09 A3001 RMK A01 T00910091  RH  100%=      5-min Rain = 0
KSC1 241152Z 28006KT 09/09 A3001 RMK A01 T00910091  RH  100%=      5-min Rain = 0
KSC1 241153Z 28005KT 09/09 A3001 RMK A01 T00920092  RH  100%=      5-min Rain = 0
KSC1 241154Z 27005KT 09/09 A3001 RMK A01 T00920092  RH  100%=      5-min Rain = 0
KSC1 241155Z 28006KT 09/09 A3001 RMK A01 T00920092  RH  100%=      5-min Rain = 0
KSC1 241156Z 29005KT 09/09 A3001 RMK A01 T00910091  RH  100%=      5-min Rain = 0
KSC1 241157Z 30003KT 09/09 A3001 RMK A01 T00920092  RH  100%=      5-min Rain = 0
KSC1 241158Z 32005KT 09/09 A3001 RMK A01 T00920092  RH  100%=      5-min Rain = 0
KSC1 241159Z 32007KT 09/09 A3002 RMK A01 T00920092  RH  100%=      5-min Rain = 0
KSC1 241200Z 32006KT 09/09 A3002 RMK A01 T00920092  RH  100%=      5-min Rain = 0
KSC1 241201Z 31004KT 09/09 A3002 RMK A01 T00920092  RH  100%=      5-min Rain = 0
KSC1 241202Z 30005KT 09/09 A3002 RMK A01 T00910091  RH  100%=      5-min Rain = 0
KSC1 241203Z 30004KT 09/09 A3002 RMK A01 T00910091  RH  100%=      5-min Rain = 0
KSC1 241204Z 29004KT 09/09 A3002 RMK A01 T00900090  RH  100%=      5-min Rain = 0
KSC1 241205Z 30005KT 09/09 A3002 RMK A01 T00900090  RH  100%=      5-min Rain = 0
KSC1 241206Z 30005KT 09/09 A3002 RMK A01 T00900090  RH  100%=      5-min Rain = 0
KSC1 241207Z 29005KT 09/09 A3002 RMK A01 T00900090  RH  100%=      5-min Rain = 0
KSC1 241208Z 29004KT 09/09 A3002 RMK A01 T00890089  RH  100%=      5-min Rain = 0
KSC1 241209Z 28003KT 09/09 A3002 RMK A01 T00890089  RH  100%=      5-min Rain = 0
KSC1 241210Z 28004KT 09/09 A3002 RMK A01 T00880088  RH  100%=      5-min Rain = 0
KSC1 241211Z 27004KT 09/09 A3002 RMK A01 T00870087  RH  100%=      5-min Rain = 0
KSC1 241212Z 26004KT 09/09 A3002 RMK A01 T00860086  RH  100%=      5-min Rain = 0
KSC1 241213Z 26003KT 09/09 A3002 RMK A01 T00860086  RH  100%=      5-min Rain = 0
KSC1 241214Z 26003KT 09/09 A3002 RMK A01 T00850085  RH  100%=      5-min Rain = 0
KSC1 241215Z 27002KT 09/09 A3002 RMK A01 T00850085  RH  100%=      5-min Rain = 0
KSC1 241216Z 27002KT 08/08 A3002 RMK A01 T00840084  RH  100%=      5-min Rain = 0
KSC1 241217Z 27003KT 08/08 A3002 RMK A01 T00830083  RH  100%=      5-min Rain = 0
KSC1 241218Z 28002KT 08/08 A3003 RMK A01 T00820082  RH  100%=      5-min Rain = 0
KSC1 241219Z 30002KT 08/08 A3003 RMK A01 T00820082  RH  100%=      5-min Rain = 0
KSC1 241220Z 29002KT 08/08 A3003 RMK A01 T00810081  RH  100%=      5-min Rain = 0
KSC1 241221Z 31003KT 08/08 A3003 RMK A01 T00800080  RH  100%=      5-min Rain = 0
KSC1 241222Z 31004KT 08/08 A3003 RMK A01 T00800080  RH  100%=      5-min Rain = 0
KSC1 241223Z 30005KT 08/08 A3003 RMK A01 T00800080  RH  100%=      5-min Rain = 0
KSC1 241224Z 30004KT 08/08 A3003 RMK A01 T00810081  RH  100%=      5-min Rain = 0
KSC1 241225Z 30006KT 08/08 A3003 RMK A01 T00830083  RH  100%=      5-min Rain = 0
KSC1 241226Z 30005KT 08/08 A3003 RMK A01 T00830083  RH  100%=      5-min Rain = 0
KSC1 241227Z 30006KT 08/08 A3003 RMK A01 T00840084  RH  100%=      5-min Rain = 0
KSC1 241228Z 29006KT 09/09 A3003 RMK A01 T00850085  RH  100%=      5-min Rain = 0
KSC1 241229Z 29006KT 09/09 A3003 RMK A01 T00850085  RH  100%=      5-min Rain = 0
KSC1 241230Z 29006KT 09/09 A3003 RMK A01 T00850085  RH  100%=      5-min Rain = 0
KSC1 241231Z 29007KT 09/09 A3003 RMK A01 T00850085  RH  100%=      5-min Rain = 0
KSC1 241232Z 29007KT 09/08 A3004 RMK A01 T00850084  RH  100%=      5-min Rain = 0
KSC1 241233Z 28006KT 09/09 A3004 RMK A01 T00850085  RH  100%=      5-min Rain = 0
KSC1 241234Z 29006KT 09/08 A3003 RMK A01 T00860083  RH  098%=      5-min Rain = 0
KSC1 241235Z 29005KT 09/08 A3003 RMK A01 T00850078  RH  096%=      5-min Rain = 0
KSC1 241236Z 29006KT 08/08 A3003 RMK A01 T00840075  RH  094%=      5-min Rain = 0
KSC1 241237Z 29006KT 08/07 A3003 RMK A01 T00840068  RH  090%=      5-min Rain = 0
KSC1 241238Z 29006KT 08/06 A3003 RMK A01 T00840060  RH  085%=      5-min Rain = 0
KSC1 241239Z 29006KT 09/06 A3003 RMK A01 T00850057  RH  083%=      5-min Rain = 0
KSC1 241240Z 30005KT 08/05 A3003 RMK A01 T00840054  RH  081%=      5-min Rain = 0
KSC1 241241Z 30007KT 08/05 A3003 RMK A01 T00840051  RH  080%=      5-min Rain = 0
KSC1 241242Z 30007KT 08/05 A3004 RMK A01 T00840047  RH  078%=      5-min Rain = 0
KSC1 241243Z 30006KT 08/05 A3004 RMK A01 T00840045  RH  077%=      5-min Rain = 0
KSC1 241244Z 30006KT 08/04 A3004 RMK A01 T00840044  RH  076%=      5-min Rain = 0
KSC1 241245Z 30005KT 08/04 A3004 RMK A01 T00840044  RH  076%=      5-min Rain = 0
KSC1 241246Z 30006KT 08/04 A3004 RMK A01 T00830042  RH  075%=      5-min Rain = 0
KSC1 241247Z 30006KT 08/04 A3004 RMK A01 T00830041  RH  075%=      5-min Rain = 0
KSC1 241248Z 30006KT 08/04 A3004 RMK A01 T00820040  RH  075%=      5-min Rain = 0
KSC1 241249Z 30006KT 08/04 A3004 RMK A01 T00810037  RH  074%=      5-min Rain = 0
KSC1 241250Z 30006KT 08/04 A3005 RMK A01 T00800036  RH  073%=      5-min Rain = 0
KSC1 241251Z 31006KT 08/03 A3005 RMK A01 T00790033  RH  073%=      5-min Rain = 0
KSC1 241252Z 30007KT 08/03 A3005 RMK A01 T00790031  RH  072%=      5-min Rain = 0
KSC1 241253Z 31006KT 08/03 A3005 RMK A01 T00780028  RH  071%=      5-min Rain = 0
KSC1 241254Z 31007KT 08/03 A3005 RMK A01 T00770026  RH  070%=      5-min Rain = 0
KSC1 241255Z 31007KT 08/02 A3005 RMK A01 T00770024  RH  069%=      5-min Rain = 0
KSC1 241256Z 31007KT 08/02 A3005 RMK A01 T00770022  RH  068%=      5-min Rain = 0
KSC1 241257Z 31007KT 08/02 A3005 RMK A01 T00770020  RH  067%=      5-min Rain = 0
KSC1 241258Z 31007KT 08/02 A3005 RMK A01 T00760017  RH  066%=      5-min Rain = 0
KSC1 241259Z 31006KT 08/02 A3005 RMK A01 T00760015  RH  065%=      5-min Rain = 0
KSC1 241300Z 31007KT 08/01 A3005 RMK A01 T00760014  RH  065%=      5-min Rain = 0
KSC1 241301Z 32007KT 08/01 A3005 RMK A01 T00750013  RH  065%=      5-min Rain = 0
KSC1 241302Z 32007KT 07/01 A3005 RMK A01 T00740011  RH  064%=      5-min Rain = 0
KSC1 241303Z 32007KT 07/01 A3005 RMK A01 T00730010  RH  064%=      5-min Rain = 0
KSC1 241304Z 31007KT 07/01 A3005 RMK A01 T00720008  RH  064%=      5-min Rain = 0
KSC1 241305Z 32007KT 07/01 A3005 RMK A01 T00720007  RH  063%=      5-min Rain = 0
KSC1 241306Z 32008KT 07/01 A3005 RMK A01 T00710005  RH  063%=      5-min Rain = 0
KSC1 241307Z 32007KT 07/01 A3005 RMK A01 T00710005  RH  063%=      5-min Rain = 0
KSC1 241308Z 32007KT 07/00 A3005 RMK A01 T00700004  RH  063%=      5-min Rain = 0
KSC1 241309Z 32006KT 07/00 A3005 RMK A01 T00700003  RH  063%=      5-min Rain = 0
KSC1 241310Z 32006KT 07/00 A3005 RMK A01 T00700003  RH  062%=      5-min Rain = 0
KSC1 241311Z 32006KT 07/00 A3005 RMK A01 T00690003  RH  063%=      5-min Rain = 0
KSC1 241312Z 32006KT 07/00 A3005 RMK A01 T00680002  RH  063%=      5-min Rain = 0
KSC1 241313Z 33006KT 07/00 A3006 RMK A01 T00670002  RH  063%=      5-min Rain = 0
KSC1 241314Z 33006KT 07/00 A3006 RMK A01 T00670001  RH  063%=      5-min Rain = 0
KSC1 241315Z 33006KT 07/00 A3006 RMK A01 T00670001  RH  063%=      5-min Rain = 0
KSC1 241316Z 33006KT 07/00 A3006 RMK A01 T00660001  RH  063%=      5-min Rain = 0
KSC1 241317Z 33007KT 07/00 A3006 RMK A01 T00650001  RH  063%=      5-min Rain = 0
KSC1 241318Z 33006KT 07/00 A3006 RMK A01 T00650001  RH  064%=      5-min Rain = 0
KSC1 241319Z 33007KT 06/00 A3006 RMK A01 T00640001  RH  064%=      5-min Rain = 0
KSC1 241320Z 33007KT 06/00 A3006 RMK A01 T00640001  RH  064%=      5-min Rain = 0
KSC1 241321Z 33006KT 06/00 A3006 RMK A01 T00640001  RH  064%=      5-min Rain = 0
KSC1 241322Z 33006KT 06/00 A3006 RMK A01 T00640000  RH  064%=      5-min Rain = 0
KSC1 241323Z 32006KT 06/00 A3006 RMK A01 T00640001  RH  064%=      5-min Rain = 0
KSC1 241324Z 32007KT 06/00 A3006 RMK A01 T00640001  RH  064%=      5-min Rain = 0
KSC1 241325Z 32006KT 06/00 A3006 RMK A01 T006400-0  RH  064%=      5-min Rain = 0
KSC1 241326Z 32007KT 06/M00 A3006 RMK A01 T00641001  RH  063%=      5-min Rain = 0
KSC1 241327Z 32007KT 06/M00 A3006 RMK A01 T00641001  RH  063%=      5-min Rain = 0
KSC1 241328Z 32008KT 07/M00 A3007 RMK A01 T00651001  RH  063%=      5-min Rain = 0
KSC1 241329Z 33008KT 07/M00 A3007 RMK A01 T00651002  RH  062%=      5-min Rain = 0
KSC1 241330Z 32007KT 07/M00 A3007 RMK A01 T00661002  RH  062%=      5-min Rain = 0
KSC1 241331Z 33007KT 07/M00 A3007 RMK A01 T00661003  RH  061%=      5-min Rain = 0
KSC1 241332Z 33007KT 07/M00 A3007 RMK A01 T00661003  RH  061%=      5-min Rain = 0
KSC1 241333Z 33006KT 07/M00 A3007 RMK A01 T00661003  RH  061%=      5-min Rain = 0
KSC1 241334Z 33006KT 07/M00 A3007 RMK A01 T00671004  RH  061%=      5-min Rain = 0
KSC1 241335Z 33007KT 07/M00 A3007 RMK A01 T00671004  RH  060%=      5-min Rain = 0
KSC1 241336Z 33006KT 07/M00 A3007 RMK A01 T00671004  RH  061%=      5-min Rain = 0
KSC1 241337Z 33007KT 07/M00 A3007 RMK A01 T00671003  RH  061%=      5-min Rain = 0
KSC1 241338Z 33006KT 07/M00 A3007 RMK A01 T00661003  RH  061%=      5-min Rain = 0
KSC1 241339Z 33006KT 07/M00 A3007 RMK A01 T00661003  RH  061%=      5-min Rain = 0
KSC1 241340Z 33006KT 07/M00 A3007 RMK A01 T00661003  RH  061%=      5-min Rain = 0
KSC1 241341Z 33006KT 07/M00 A3007 RMK A01 T00661003  RH  061%=      5-min Rain = 0
KSC1 241342Z 33006KT 07/M00 A3007 RMK A01 T00661003  RH  062%=      5-min Rain = 0
KSC1 241343Z 33007KT 07/M00 A3007 RMK A01 T00661003  RH  062%=      5-min Rain = 0
KSC1 241344Z 33006KT 07/M00 A3007 RMK A01 T00661003  RH  062%=      5-min Rain = 0
KSC1 241345Z 33007KT 07/M00 A3007 RMK A01 T00661002  RH  062%=      5-min Rain = 0
KSC1 241346Z 33007KT 07/M00 A3007 RMK A01 T00661002  RH  062%=      5-min Rain = 0
KSC1 241347Z 33006KT 07/M00 A3007 RMK A01 T00661002  RH  062%=      5-min Rain = 0
KSC1 241348Z 33006KT 07/M00 A3008 RMK A01 T00661002  RH  062%=      5-min Rain = 0
KSC1 241349Z 33005KT 07/00 A3008 RMK A01 T00660000  RH  063%=      5-min Rain = 0
KSC1 241350Z 33005KT 07/00 A3008 RMK A01 T006600-0  RH  063%=      5-min Rain = 0
KSC1 241351Z 34005KT 07/00 A3008 RMK A01 T00660001  RH  063%=      5-min Rain = 0
KSC1 241352Z 34004KT 07/00 A3008 RMK A01 T00670002  RH  063%=      5-min Rain = 0
KSC1 241353Z 34005KT 07/00 A3008 RMK A01 T00670001  RH  063%=      5-min Rain = 0
KSC1 241354Z 34004KT 07/00 A3008 RMK A01 T00680001  RH  062%=      5-min Rain = 0
KSC1 241355Z 35005KT 07/00 A3008 RMK A01 T00690000  RH  061%=      5-min Rain = 0
KSC1 241356Z 34005KT 07/00 A3008 RMK A01 T00700000  RH  061%=      5-min Rain = 0
KSC1 241357Z 34006KT 07/M00 A3008 RMK A01 T00721001  RH  060%=      5-min Rain = 0
KSC1 241358Z 34005KT 07/M00 A3008 RMK A01 T00731003  RH  059%=      5-min Rain = 0
KSC1 241359Z 33005KT 07/M00 A3008 RMK A01 T00741003  RH  058%=      5-min Rain = 0
KSC1 241400Z 34005KT 08/M00 A3008 RMK A01 T00761004  RH  057%=      5-min Rain = 0
KSC1 241401Z 33005KT 08/M00 A3009 RMK A01 T00771003  RH  057%=      5-min Rain = 0
KSC1 241402Z 34006KT 08/M00 A3009 RMK A01 T00781004  RH  056%=      5-min Rain = 0
KSC1 241403Z 33006KT 08/M01 A3009 RMK A01 T00791006  RH  055%=      5-min Rain = 0
KSC1 241404Z 32004KT 08/M01 A3009 RMK A01 T00801005  RH  055%=      5-min Rain = 0
KSC1 241405Z 33004KT 08/M00 A3009 RMK A01 T00801004  RH  055%=      5-min Rain = 0
KSC1 241406Z 33004KT 08/M01 A3009 RMK A01 T00811005  RH  055%=      5-min Rain = 0
KSC1 241407Z 34005KT 08/M01 A3009 RMK A01 T00811005  RH  054%=      5-min Rain = 0
KSC1 241408Z 34006KT 08/M01 A301 RMK A01 T00821008  RH  053%=      5-min Rain = 0
KSC1 241409Z 34005KT 08/M01 A301 RMK A01 T00831007  RH  053%=      5-min Rain = 0
KSC1 241410Z 34004KT 08/M01 A301 RMK A01 T00841008  RH  053%=      5-min Rain = 0
KSC1 241411Z 35004KT 09/M01 A301 RMK A01 T00851007  RH  052%=      5-min Rain = 0
KSC1 241412Z 35005KT 09/M01 A301 RMK A01 T00851007  RH  052%=      5-min Rain = 0
KSC1 241413Z 34007KT 09/M01 A301 RMK A01 T00861008  RH  051%=      5-min Rain = 0
KSC1 241414Z 34007KT 09/M01 A301 RMK A01 T00871010  RH  050%=      5-min Rain = 0
KSC1 241415Z 34006KT 09/M01 A301 RMK A01 T00881010  RH  050%=      5-min Rain = 0
KSC1 241416Z 34007KT 09/M01 A301 RMK A01 T00891011  RH  049%=      5-min Rain = 0
KSC1 241417Z 34006KT 09/M01 A301 RMK A01 T00891010  RH  050%=      5-min Rain = 0
KSC1 241418Z 33007KT 09/M01 A301 RMK A01 T00901009  RH  050%=      5-min Rain = 0
KSC1 241419Z 34007KT 09/M01 A301 RMK A01 T00911011  RH  049%=      5-min Rain = 0
KSC1 241420Z 33007KT 09/M01 A301 RMK A01 T00921011  RH  049%=      5-min Rain = 0
KSC1 241421Z 34008KT 09/M01 A3011 RMK A01 T00921013  RH  048%=      5-min Rain = 0
KSC1 241422Z 33007KT 09/M01 A301 RMK A01 T00921014  RH  047%=      5-min Rain = 0
KSC1 241423Z 34007KT 09/M01 A3011 RMK A01 T00931014  RH  047%=      5-min Rain = 0
KSC1 241424Z 34005KT 09/M01 A3011 RMK A01 T00941012  RH  048%=      5-min Rain = 0
KSC1 241425Z 34008KT 09/M01 A3011 RMK A01 T00941012  RH  048%=      5-min Rain = 0
KSC1 241426Z 35007KT 09/M02 A3011 RMK A01 T00941015  RH  046%=      5-min Rain = 0
KSC1 241427Z 34004KT 09/M01 A3011 RMK A01 T00941013  RH  047%=      5-min Rain = 0
KSC1 241428Z 34006KT 10/M01 A3011 RMK A01 T00951013  RH  047%=      5-min Rain = 0
KSC1 241429Z 35006KT 10/M02 A3011 RMK A01 T00951016  RH  046%=      5-min Rain = 0
KSC1 241430Z 34004KT 09/M01 A3011 RMK A01 T00941013  RH  047%=      5-min Rain = 0
KSC1 241431Z 34007KT 10/M01 A3011 RMK A01 T00951014  RH  047%=      5-min Rain = 0
KSC1 241432Z 34007KT 10/M02 A3011 RMK A01 T00951017  RH  045%=      5-min Rain = 0
KSC1 241433Z 34006KT 10/M02 A3012 RMK A01 T00951016  RH  046%=      5-min Rain = 0
KSC1 241434Z 34006KT 10/M01 A3012 RMK A01 T00951013  RH  047%=      5-min Rain = 0
KSC1 241435Z 34006KT 10/M02 A3012 RMK A01 T00951015  RH  046%=      5-min Rain = 0
KSC1 241436Z 34006KT 10/M02 A3012 RMK A01 T00951015  RH  046%=      5-min Rain = 0
KSC1 241437Z 34006KT 10/M02 A3012 RMK A01 T00951015  RH  046%=      5-min Rain = 0
KSC1 241438Z 35006KT 10/M01 A3012 RMK A01 T00961014  RH  046%=      5-min Rain = 0
KSC1 241439Z 34005KT 10/M01 A3012 RMK A01 T00971013  RH  046%=      5-min Rain = 0
KSC1 241440Z 35007KT 10/M01 A3012 RMK A01 T00981013  RH  046%=      5-min Rain = 0
KSC1 241441Z 35006KT 10/M02 A3012 RMK A01 T00981015  RH  045%=      5-min Rain = 0
KSC1 241442Z 35006KT 10/M02 A3012 RMK A01 T00981016  RH  045%=      5-min Rain = 0
KSC1 241443Z 34006KT 10/M02 A3012 RMK A01 T00991016  RH  045%=      5-min Rain = 0
KSC1 241444Z 35007KT 10/M01 A3012 RMK A01 T01001014  RH  045%=      5-min Rain = 0
KSC1 241445Z 35007KT 10/M02 A3012 RMK A01 T01011015  RH  045%=      5-min Rain = 0
KSC1 241446Z 35006KT 10/M02 A3012 RMK A01 T01011016  RH  044%=      5-min Rain = 0
KSC1 241447Z 35006KT 10/M02 A3012 RMK A01 T01021017  RH  044%=      5-min Rain = 0
KSC1 241448Z 34007KT 10/M02 A3012 RMK A01 T01021016  RH  043%=      5-min Rain = 0
KSC1 241449Z 34006KT 10/M02 A3012 RMK A01 T01031016  RH  043%=      5-min Rain = 0
KSC1 241450Z 35006KT 10/M02 A3012 RMK A01 T01041015  RH  044%=      5-min Rain = 0
KSC1 241451Z 34006KT 10/M02 A3012 RMK A01 T01041015  RH  043%=      5-min Rain = 0
KSC1 241452Z 35007KT 11/M02 A3012 RMK A01 T01051015  RH  043%=      5-min Rain = 0
KSC1 241453Z 35007KT 11/M02 A3012 RMK A01 T01051016  RH  043%=      5-min Rain = 0
KSC1 241454Z 35007KT 11/M02 A3013 RMK A01 T01051017  RH  042%=      5-min Rain = 0
KSC1 241455Z 35006KT 11/M02 A3013 RMK A01 T01061016  RH  043%=      5-min Rain = 0
KSC1 241456Z 35007KT 11/M02 A3013 RMK A01 T01071015  RH  043%=      5-min Rain = 0
KSC1 241457Z 35009KT 11/M02 A3013 RMK A01 T01071017  RH  042%=      5-min Rain = 0
KSC1 241458Z 35006KT 11/M02 A3013 RMK A01 T01071018  RH  042%=      5-min Rain = 0
KSC1 241459Z 35005KT 11/M02 A3013 RMK A01 T01081016  RH  042%=      5-min Rain = 0
KSC1 241500Z 35007KT 11/M02 A3013 RMK A01 T01101015  RH  042%=      5-min Rain = 0
KSC1 241501Z 35009KT 11/M02 A3013 RMK A01 T01101018  RH  041%=      5-min Rain = 0
KSC1 241502Z 36009KT 11/M02 A3013 RMK A01 T01101019  RH  041%=      5-min Rain = 0
KSC1 241503Z 36010KT 11/M02 A3013 RMK A01 T01101018  RH  041%=      5-min Rain = 0
KSC1 241504Z 35012KT 11/M02 A3013 RMK A01 T01121019  RH  040%=      5-min Rain = 0
KSC1 241505Z 01011KT 11/M02 A3013 RMK A01 T01121020  RH  040%=      5-min Rain = 0
KSC1 241506Z 34009KT 11/M02 A3013 RMK A01 T01131018  RH  040%=      5-min Rain = 0
KSC1 241507Z 00014KT 11/M02 A3013 RMK A01 T01141019  RH  039%=      5-min Rain = 0
KSC1 241508Z 36015KT 11/M02 A3013 RMK A01 T01141022  RH  039%=      5-min Rain = 0
KSC1 241509Z 01012KT 11/M02 A3013 RMK A01 T01131023  RH  038%=      5-min Rain = 0
KSC1 241510Z 35008KT 11/M02 A3013 RMK A01 T01131020  RH  039%=      5-min Rain = 0
KSC1 241511Z 35007G12KT 12/M02 A3013 RMK A01 T01151017  RH  040%=      5-min Rain = 0
KSC1 241512Z 35011KT 12/M02 A3013 RMK A01 T01171019  RH  039%=      5-min Rain = 0
KSC1 241513Z 01010KT 12/M02 A3013 RMK A01 T01171020  RH  039%=      5-min Rain = 0
KSC1 241514Z 01011KT 12/M02 A3014 RMK A01 T01171020  RH  038%=      5-min Rain = 0
KSC1 241515Z 35012G17KT 12/M02 A3013 RMK A01 T01171020  RH  038%=      5-min Rain = 0
KSC1 241516Z 36011G16KT 12/M02 A3014 RMK A01 T01171022  RH  038%=      5-min Rain = 0
KSC1 241517Z 00011KT 12/M02 A3014 RMK A01 T01161021  RH  038%=      5-min Rain = 0
KSC1 241518Z 01012KT 12/M02 A3013 RMK A01 T01171022  RH  038%=      5-min Rain = 0
KSC1 241519Z 36012KT 12/M02 A3013 RMK A01 T01171022  RH  038%=      5-min Rain = 0
KSC1 241520Z 00010G15KT 12/M02 A3013 RMK A01 T01171021  RH  038%=      5-min Rain = 0
KSC1 241521Z 35013KT 12/M02 A3014 RMK A01 T01171021  RH  038%=      5-min Rain = 0
KSC1 241522Z 00011KT 12/M02 A3014 RMK A01 T01171021  RH  038%=      5-min Rain = 0
KSC1 241523Z 00009G14KT 12/M02 A3014 RMK A01 T01181019  RH  038%=      5-min Rain = 0
KSC1 241524Z 00012G17KT 12/M02 A3014 RMK A01 T01201019  RH  038%=      5-min Rain = 0
KSC1 241525Z 01013KT 12/M02 A3014 RMK A01 T01201021  RH  037%=      5-min Rain = 0
KSC1 241526Z 01013KT 12/M02 A3014 RMK A01 T01201020  RH  038%=      5-min Rain = 0
KSC1 241527Z 01013KT 12/M02 A3014 RMK A01 T01201021  RH  037%=      5-min Rain = 0
KSC1 241528Z 00011KT 12/M02 A3014 RMK A01 T01201021  RH  037%=      5-min Rain = 0
KSC1 241529Z 00010KT 12/M02 A3014 RMK A01 T01211020  RH  037%=      5-min Rain = 0
KSC1 241530Z 01012KT 12/M02 A3014 RMK A01 T01221021  RH  037%=      5-min Rain = 0
KSC1 241531Z 01011KT 12/M02 A3014 RMK A01 T01221021  RH  037%=      5-min Rain = 0
KSC1 241532Z 36010KT 12/M02 A3014 RMK A01 T01221021  RH  037%=      5-min Rain = 0
KSC1 241533Z 00011KT 12/M02 A3014 RMK A01 T01231019  RH  037%=      5-min Rain = 0
KSC1 241534Z 35010KT 12/M02 A3014 RMK A01 T01241020  RH  037%=      5-min Rain = 0
KSC1 241535Z 36009KT 12/M02 A3014 RMK A01 T01241019  RH  037%=      5-min Rain = 0
KSC1 241536Z 36012KT 13/M02 A3014 RMK A01 T01251019  RH  037%=      5-min Rain = 0
KSC1 241537Z 01012KT 13/M02 A3014 RMK A01 T01261019  RH  036%=      5-min Rain = 0
KSC1 241538Z 01014KT 13/M02 A3014 RMK A01 T01261021  RH  036%=      5-min Rain = 0
KSC1 241539Z 01012KT 13/M02 A3014 RMK A01 T01251022  RH  036%=      5-min Rain = 0
KSC1 241540Z 02011KT 13/M02 A3014 RMK A01 T01251022  RH  036%=      5-min Rain = 0
KSC1 241541Z 00012KT 13/M02 A3014 RMK A01 T01251022  RH  036%=      5-min Rain = 0
KSC1 241542Z 36011KT 13/M02 A3014 RMK A01 T01251021  RH  036%=      5-min Rain = 0
KSC1 241543Z 35012G17KT 13/M02 A3014 RMK A01 T01271020  RH  036%=      5-min Rain = 0
KSC1 241544Z 01010G15KT 13/M02 A3014 RMK A01 T01271021  RH  036%=      5-min Rain = 0
KSC1 241545Z 00011KT 13/M02 A3014 RMK A01 T01281019  RH  036%=      5-min Rain = 0
KSC1 241546Z 02013G18KT 13/M02 A3014 RMK A01 T01291019  RH  036%=      5-min Rain = 0
KSC1 241547Z 02014KT 13/M02 A3014 RMK A01 T01291020  RH  035%=      5-min Rain = 0
KSC1 241548Z 01011KT 13/M02 A3014 RMK A01 T01281021  RH  035%=      5-min Rain = 0
KSC1 241549Z 00013KT 13/M02 A3014 RMK A01 T01281021  RH  035%=      5-min Rain = 0
KSC1 241550Z 36015KT 13/M02 A3014 RMK A01 T01281021  RH  036%=      5-min Rain = 0
KSC1 241551Z 36011KT 13/M02 A3014 RMK A01 T01281019  RH  036%=      5-min Rain = 0
KSC1 241552Z 35014KT 13/M02 A3014 RMK A01 T01281021  RH  035%=      5-min Rain = 0
KSC1 241553Z 36010KT 13/M02 A3014 RMK A01 T01271021  RH  036%=      5-min Rain = 0
KSC1 241554Z 36012G17KT 13/M02 A3014 RMK A01 T01291019  RH  036%=      5-min Rain = 0
KSC1 241555Z 35014KT 13/M02 A3014 RMK A01 T01301020  RH  035%=      5-min Rain = 0
KSC1 241556Z 01011KT 13/M02 A3014 RMK A01 T01291022  RH  035%=      5-min Rain = 0
KSC1 241557Z 01013KT 13/M02 A3014 RMK A01 T01281021  RH  036%=      5-min Rain = 0
KSC1 241558Z 36015KT 13/M02 A3014 RMK A01 T01281021  RH  035%=      5-min Rain = 0
KSC1 241559Z 00013KT 13/M02 A3014 RMK A01 T01281022  RH  035%=      5-min Rain = 0
KSC1 241600Z 00012G18KT 13/M02 A3014 RMK A01 T01271021  RH  036%=      5-min Rain = 0
KSC1 241601Z 00012KT 13/M02 A3014 RMK A01 T01281022  RH  035%=      5-min Rain = 0
KSC1 241602Z 00009KT 13/M02 A3014 RMK A01 T01281022  RH  035%=      5-min Rain = 0
KSC1 241603Z 00009KT 13/M02 A3014 RMK A01 T01291020  RH  035%=      5-min Rain = 0
KSC1 241604Z 01009KT 13/M02 A3014 RMK A01 T01321015  RH  036%=      5-min Rain = 0
KSC1 241605Z 35012KT 14/M02 A3014 RMK A01 T01351018  RH  035%=      5-min Rain = 0
KSC1 241606Z 35012G17KT 13/M02 A3014 RMK A01 T01341020  RH  034%=      5-min Rain = 0
KSC1 241607Z 00011KT 13/M02 A3014 RMK A01 T01321020  RH  035%=      5-min Rain = 0
KSC1 241608Z 01012KT 13/M02 A3014 RMK A01 T01321021  RH  035%=      5-min Rain = 0
KSC1 241609Z 36012G17KT 13/M02 A3014 RMK A01 T01301022  RH  035%=      5-min Rain = 0
KSC1 241610Z 36013KT 13/M02 A3014 RMK A01 T01311020  RH  035%=      5-min Rain = 0
KSC1 241611Z 00012KT 13/M02 A3014 RMK A01 T01311020  RH  035%=      5-min Rain = 0
KSC1 241612Z 02010G15KT 13/M02 A3014 RMK A01 T01321019  RH  035%=      5-min Rain = 0
KSC1 241613Z 02011KT 13/M02 A3014 RMK A01 T01341019  RH  035%=      5-min Rain = 0
KSC1 241614Z 01012KT 14/M02 A3014 RMK A01 T01351018  RH  035%=      5-min Rain = 0
KSC1 241615Z 02011G16KT 13/M02 A3014 RMK A01 T01341020  RH  034%=      5-min Rain = 0
KSC1 241616Z 00011KT 13/M02 A3014 RMK A01 T01331019  RH  035%=      5-min Rain = 0
KSC1 241617Z 00011KT 13/M02 A3014 RMK A01 T01341019  RH  035%=      5-min Rain = 0
KSC1 241618Z 01011G17KT 13/M02 A3014 RMK A01 T01341018  RH  035%=      5-min Rain = 0
KSC1 241619Z 02013KT 14/M02 A3014 RMK A01 T01351020  RH  034%=      5-min Rain = 0
KSC1 241620Z 03012KT 13/M02 A3014 RMK A01 T01331022  RH  034%=      5-min Rain = 0
KSC1 241621Z 02012KT 13/M02 A3013 RMK A01 T01321022  RH  034%=      5-min Rain = 0
KSC1 241622Z 35011G17KT 13/M02 A3013 RMK A01 T01321019  RH  035%=      5-min Rain = 0
KSC1 241623Z 35012KT 13/M02 A3013 RMK A01 T01341018  RH  035%=      5-min Rain = 0
KSC1 241624Z 35014KT 14/M02 A3013 RMK A01 T01361018  RH  034%=      5-min Rain = 0
KSC1 241625Z 34013KT 13/M02 A3013 RMK A01 T01341020  RH  034%=      5-min Rain = 0
KSC1 241626Z 35012KT 13/M02 A3013 RMK A01 T01341019  RH  035%=      5-min Rain = 0
KSC1 241627Z 01010KT 13/M02 A3013 RMK A01 T01341019  RH  035%=      5-min Rain = 0
KSC1 241628Z 36009G14KT 14/M02 A3013 RMK A01 T01351018  RH  035%=      5-min Rain = 0
KSC1 241629Z 35013G18KT 14/M02 A3013 RMK A01 T01351018  RH  034%=      5-min Rain = 0
KSC1 241630Z 35015KT 14/M02 A3013 RMK A01 T01351020  RH  034%=      5-min Rain = 0
KSC1 241631Z 35014KT 13/M02 A3013 RMK A01 T01331020  RH  035%=      5-min Rain = 0
KSC1 241632Z 00010KT 13/M02 A3014 RMK A01 T01331019  RH  035%=      5-min Rain = 0
KSC1 241633Z 35012G17KT 14/M02 A3014 RMK A01 T01361018  RH  034%=      5-min Rain = 0
KSC1 241634Z 36014KT 14/M02 A3014 RMK A01 T01361020  RH  034%=      5-min Rain = 0
KSC1 241635Z 00011KT 14/M02 A3014 RMK A01 T01351020  RH  034%=      5-min Rain = 0
KSC1 241636Z 00011KT 13/M02 A3014 RMK A01 T01341019  RH  035%=      5-min Rain = 0
KSC1 241637Z 01012KT 14/M02 A3014 RMK A01 T01361017  RH  035%=      5-min Rain = 0
KSC1 241638Z 00014G19KT 14/M02 A3014 RMK A01 T01391017  RH  034%=      5-min Rain = 0
KSC1 241639Z 36011KT 14/M02 A3014 RMK A01 T01371019  RH  034%=      5-min Rain = 0
KSC1 241640Z 35011KT 14/M02 A3014 RMK A01 T01361019  RH  034%=      5-min Rain = 0
KSC1 241641Z 35009G14KT 14/M02 A3014 RMK A01 T01371016  RH  035%=      5-min Rain = 0
KSC1 241642Z 01011KT 14/M02 A3014 RMK A01 T01401015  RH  034%=      5-min Rain = 0
KSC1 241643Z 35010KT 14/M02 A3014 RMK A01 T01401017  RH  034%=      5-min Rain = 0
KSC1 241644Z 36012KT 14/M02 A3014 RMK A01 T01411015  RH  034%=      5-min Rain = 0
KSC1 241645Z 35012KT 14/M02 A3014 RMK A01 T01411016  RH  034%=      5-min Rain = 0
KSC1 241646Z 00010KT 14/M02 A3014 RMK A01 T01401017  RH  034%=      5-min Rain = 0
KSC1 241647Z 02011KT 14/M02 A3014 RMK A01 T01391016  RH  034%=      5-min Rain = 0
KSC1 241648Z 01012KT 14/M02 A3014 RMK A01 T01391017  RH  034%=      5-min Rain = 0
KSC1 241649Z 00012KT 14/M02 A3014 RMK A01 T01381017  RH  034%=      5-min Rain = 0
KSC1 241650Z 35011KT 14/M02 A3014 RMK A01 T01381016  RH  034%=      5-min Rain = 0
KSC1 241651Z 35011KT 14/M02 A3014 RMK A01 T01391016  RH  034%=      5-min Rain = 0
KSC1 241652Z 35010KT 14/M02 A3014 RMK A01 T01371017  RH  035%=      5-min Rain = 0
KSC1 241653Z 01010KT 14/M01 A3014 RMK A01 T01401010  RH  035%=      5-min Rain = 0
KSC1 241654Z 01012KT 14/M02 A3014 RMK A01 T01431015  RH  034%=      5-min Rain = 0
KSC1 241655Z 02014KT 14/M02 A3014 RMK A01 T01401016  RH  034%=      5-min Rain = 0
KSC1 241656Z 02013KT 14/M02 A3014 RMK A01 T01391015  RH  034%=      5-min Rain = 0
KSC1 241657Z 02011KT 14/M02 A3014 RMK A01 T01391015  RH  035%=      5-min Rain = 0
KSC1 241658Z 02010KT 14/M01 A3014 RMK A01 T01401013  RH  035%=      5-min Rain = 0
KSC1 241659Z 03009KT 14/M01 A3014 RMK A01 T01411013  RH  034%=      5-min Rain = 0
KSC1 241700Z 01012KT 14/M01 A3014 RMK A01 T01421013  RH  034%=      5-min Rain = 0
KSC1 241701Z 00008KT 14/M01 A3014 RMK A01 T01431013  RH  034%=      5-min Rain = 0
KSC1 241702Z 34011KT 14/M01 A3014 RMK A01 T01441009  RH  035%=      5-min Rain = 0
KSC1 241703Z 34012KT 15/M01 A3014 RMK A01 T01451012  RH  034%=      5-min Rain = 0
KSC1 241704Z 36011KT 15/M01 A3014 RMK A01 T01451010  RH  034%=      5-min Rain = 0
KSC1 241705Z 00013KT 15/M01 A3014 RMK A01 T01481009  RH  034%=      5-min Rain = 0
KSC1 241706Z 01012KT 15/M01 A3014 RMK A01 T01471012  RH  033%=      5-min Rain = 0
KSC1 241707Z 02011KT 15/M01 A3014 RMK A01 T01451012  RH  034%=      5-min Rain = 0
KSC1 241708Z 02011KT 14/M01 A3014 RMK A01 T01441012  RH  034%=      5-min Rain = 0
KSC1 241709Z 01008KT 14/M01 A3014 RMK A01 T01431012  RH  034%=      5-min Rain = 0
KSC1 241710Z 01013KT 14/M01 A3014 RMK A01 T01441010  RH  035%=      5-min Rain = 0
KSC1 241711Z 02012KT 15/M01 A3014 RMK A01 T01451012  RH  034%=      5-min Rain = 0
KSC1 241712Z 00013KT 14/M01 A3014 RMK A01 T01421013  RH  034%=      5-min Rain = 0
KSC1 241713Z 36012KT 14/M01 A3014 RMK A01 T01421010  RH  035%=      5-min Rain = 0
KSC1 241714Z 35013KT 14/M01 A3014 RMK A01 T01441010  RH  035%=      5-min Rain = 0
KSC1 241715Z 35010KT 14/M01 A3014 RMK A01 T01441011  RH  034%=      5-min Rain = 0
KSC1 241716Z 35012KT 15/M01 A3014 RMK A01 T01451011  RH  034%=      5-min Rain = 0
KSC1 241717Z 35010KT 15/M01 A3014 RMK A01 T01451009  RH  035%=      5-min Rain = 0
KSC1 241718Z 36011KT 15/M01 A3014 RMK A01 T01461010  RH  034%=      5-min Rain = 0
KSC1 241719Z 00012KT 15/M01 A3014 RMK A01 T01471010  RH  034%=      5-min Rain = 0
KSC1 241720Z 01009KT 15/M01 A3014 RMK A01 T01461010  RH  034%=      5-min Rain = 0
KSC1 241721Z 00010KT 15/M01 A3014 RMK A01 T01461009  RH  034%=      5-min Rain = 0
KSC1 241722Z 35013KT 15/M01 A3014 RMK A01 T01481008  RH  034%=      5-min Rain = 0
KSC1 241723Z 00014KT 15/M01 A3014 RMK A01 T01491009  RH  034%=      5-min Rain = 0
KSC1 241724Z 36013KT 15/M01 A3014 RMK A01 T01481010  RH  034%=      5-min Rain = 0
KSC1 241725Z 36010G15KT 15/M01 A3014 RMK A01 T01461012  RH  034%=      5-min Rain = 0
KSC1 241726Z 35007KT 15/M01 A3014 RMK A01 T01451011  RH  034%=      5-min Rain = 0
KSC1 241727Z 36012KT 15/M01 A3014 RMK A01 T01461011  RH  034%=      5-min Rain = 0
KSC1 241728Z 00010KT 15/M01 A3014 RMK A01 T01461011  RH  034%=      5-min Rain = 0
KSC1 241729Z 02009KT 15/M01 A3014 RMK A01 T01481008  RH  034%=      5-min Rain = 0
KSC1 241730Z 03010KT 15/M01 A3014 RMK A01 T01491009  RH  034%=      5-min Rain = 0
KSC1 241731Z 04010KT 15/M01 A3014 RMK A01 T01491011  RH  033%=      5-min Rain = 0
KSC1 241732Z 02010KT 15/M01 A3014 RMK A01 T01481010  RH  034%=      5-min Rain = 0
KSC1 241733Z 01008KT 15/M01 A3014 RMK A01 T01501008  RH  034%=      5-min Rain = 0
KSC1 241734Z 36008KT 15/M01 A3014 RMK A01 T01531007  RH  033%=      5-min Rain = 0
KSC1 241735Z 35009KT 15/M01 A3014 RMK A01 T01531009  RH  033%=      5-min Rain = 0
KSC1 241736Z 00011KT 15/M01 A3014 RMK A01 T01541007  RH  033%=      5-min Rain = 0
KSC1 241737Z 01008KT 16/M01 A3014 RMK A01 T01551011  RH  032%=      5-min Rain = 0
KSC1 241738Z 01010KT 15/M01 A3014 RMK A01 T01531009  RH  033%=      5-min Rain = 0
KSC1 241739Z 02014KT 16/M01 A3014 RMK A01 T01561010  RH  032%=      5-min Rain = 0
KSC1 241740Z 02009KT 16/M01 A3014 RMK A01 T01551011  RH  032%=      5-min Rain = 0
KSC1 241741Z 03011KT 16/M01 A3014 RMK A01 T01561012  RH  032%=      5-min Rain = 0
KSC1 241742Z 00007KT 16/M01 A3014 RMK A01 T01561012  RH  032%=      5-min Rain = 0
KSC1 241743Z 36009KT 16/M01 A3014 RMK A01 T01571008  RH  032%=      5-min Rain = 0
KSC1 241744Z 35013KT 16/M01 A3014 RMK A01 T01601009  RH  032%=      5-min Rain = 0
KSC1 241745Z 35010KT 16/M01 A3014 RMK A01 T01611008  RH  032%=      5-min Rain = 0
KSC1 241746Z 35011KT 16/M01 A3014 RMK A01 T01611010  RH  031%=      5-min Rain = 0
KSC1 241747Z 34012KT 16/M01 A3014 RMK A01 T01601011  RH  031%=      5-min Rain = 0
KSC1 241748Z 34013KT 16/M01 A3014 RMK A01 T01581011  RH  031%=      5-min Rain = 0
KSC1 241749Z 00012KT 16/M01 A3014 RMK A01 T01581011  RH  031%=      5-min Rain = 0
KSC1 241750Z 02010KT 16/M01 A3014 RMK A01 T01571011  RH  032%=      5-min Rain = 0
KSC1 241751Z 02007KT 16/M01 A3014 RMK A01 T01571012  RH  032%=      5-min Rain = 0
KSC1 241752Z 00010G15KT 16/M01 A3014 RMK A01 T01571009  RH  032%=      5-min Rain = 0
KSC1 241753Z 02012G18KT 16/M01 A3013 RMK A01 T01611008  RH  032%=      5-min Rain = 0
KSC1 241754Z 03013KT 16/M01 A3014 RMK A01 T01611011  RH  031%=      5-min Rain = 0
KSC1 241755Z 01008KT 16/M01 A3014 RMK A01 T01621009  RH  031%=      5-min Rain = 0
KSC1 241756Z 00010KT 17/M01 A3013 RMK A01 T01651006  RH  031%=      5-min Rain = 0
KSC1 241757Z 35012KT 17/M01 A3013 RMK A01 T01661009  RH  030%=      5-min Rain = 0
KSC1 241758Z 00010KT 16/M01 A3013 RMK A01 T01641009  RH  031%=      5-min Rain = 0
KSC1 241759Z 36008KT 17/M01 A3013 RMK A01 T01651008  RH  031%=      5-min Rain = 0
KSC1 241800Z 36009KT 17/M01 A3013 RMK A01 T01661008  RH  030%=      5-min Rain = 0
KSC1 241801Z 00010KT 17/M01 A3013 RMK A01 T01661008  RH  030%=      5-min Rain = 0
KSC1 241802Z 02010KT 17/M01 A3013 RMK A01 T01651009  RH  030%=      5-min Rain = 0
KSC1 241803Z 02011KT 16/M01 A3013 RMK A01 T01641010  RH  031%=      5-min Rain = 0
KSC1 241804Z 34009KT 16/M01 A3013 RMK A01 T01631009  RH  031%=      5-min Rain = 0
KSC1 241805Z 36008KT 16/M01 A3013 RMK A01 T01621010  RH  031%=      5-min Rain = 0
KSC1 241806Z 36006KT 16/M01 A3013 RMK A01 T01631008  RH  031%=      5-min Rain = 0
KSC1 241807Z 36010G15KT 17/M01 A3013 RMK A01 T01671005  RH  031%=      5-min Rain = 0
KSC1 241808Z 02010KT 17/M01 A3013 RMK A01 T01681007  RH  030%=      5-min Rain = 0
KSC1 241809Z 02011KT 17/M01 A3013 RMK A01 T01691008  RH  030%=      5-min Rain = 0
KSC1 241810Z 02009KT 17/M01 A3013 RMK A01 T01661010  RH  030%=      5-min Rain = 0
KSC1 241811Z 03009KT 16/M01 A3013 RMK A01 T01631011  RH  031%=      5-min Rain = 0
KSC1 241812Z 36011KT 16/M01 A3013 RMK A01 T01631006  RH  031%=      5-min Rain = 0
KSC1 241813Z 35007KT 17/M01 A3013 RMK A01 T01661007  RH  031%=      5-min Rain = 0
KSC1 241814Z 36007G12KT 17/M01 A3013 RMK A01 T01651008  RH  031%=      5-min Rain = 0
KSC1 241815Z 33011KT 16/M01 A3013 RMK A01 T01641009  RH  031%=      5-min Rain = 0
KSC1 241816Z 34010G16KT 16/M01 A3013 RMK A01 T01621007  RH  031%=      5-min Rain = 0
KSC1 241817Z 00010G16KT 17/M01 A3013 RMK A01 T01651007  RH  031%=      5-min Rain = 0
KSC1 241818Z 02010KT 17/M01 A3013 RMK A01 T01661008  RH  031%=      5-min Rain = 0
KSC1 241819Z 02008KT 17/M01 A3013 RMK A01 T01661008  RH  031%=      5-min Rain = 0
KSC1 241820Z 01011KT 17/M01 A3013 RMK A01 T01681007  RH  030%=      5-min Rain = 0
KSC1 241821Z 00012KT 17/M01 A3013 RMK A01 T01691007  RH  030%=      5-min Rain = 0
KSC1 241822Z 35009KT 17/M01 A3013 RMK A01 T01671009  RH  030%=      5-min Rain = 0
KSC1 241823Z 00007KT 16/M01 A3013 RMK A01 T01631010  RH  031%=      5-min Rain = 0
KSC1 241824Z 01007KT 16/M01 A3013 RMK A01 T01621008  RH  031%=      5-min Rain = 0
KSC1 241825Z 00007KT 17/M01 A3013 RMK A01 T01651005  RH  031%=      5-min Rain = 0
KSC1 241826Z 36009KT 17/M00 A3013 RMK A01 T01691004  RH  031%=      5-min Rain = 0
KSC1 241827Z 01011KT 17/M00 A3013 RMK A01 T01721004  RH  030%=      5-min Rain = 0
KSC1 241828Z 01010KT 17/M01 A3013 RMK A01 T01721007  RH  030%=      5-min Rain = 0
KSC1 241829Z 01012KT 17/M01 A3013 RMK A01 T01711007  RH  030%=      5-min Rain = 0
KSC1 241830Z 01009KT 17/M01 A3013 RMK A01 T01701007  RH  030%=      5-min Rain = 0
KSC1 241831Z 01009KT 17/M00 A3013 RMK A01 T01721004  RH  030%=      5-min Rain = 0
KSC1 241832Z 02008KT 18/M01 A3013 RMK A01 T01751005  RH  029%=      5-min Rain = 0
KSC1 241833Z 01008KT 17/M01 A3013 RMK A01 T01731009  RH  029%=      5-min Rain = 0
KSC1 241834Z 02009KT 17/M01 A3012 RMK A01 T01701008  RH  030%=      5-min Rain = 0
KSC1 241835Z 02006KT 17/M00 A3012 RMK A01 T01731004  RH  030%=      5-min Rain = 0
KSC1 241836Z 04010KT 18/M00 A3012 RMK A01 T01761004  RH  029%=      5-min Rain = 0
KSC1 241837Z 02012KT 18/M01 A3012 RMK A01 T01761006  RH  029%=      5-min Rain = 0
KSC1 241838Z 01009KT 18/M01 A3012 RMK A01 T01761006  RH  029%=      5-min Rain = 0
KSC1 241839Z 00007KT 18/M00 A3012 RMK A01 T01761004  RH  029%=      5-min Rain = 0
KSC1 241840Z 03011KT 18/M00 A3012 RMK A01 T01761004  RH  029%=      5-min Rain = 0
KSC1 241841Z 01011KT 18/M00 A3012 RMK A01 T01771004  RH  029%=      5-min Rain = 0
KSC1 241842Z 01010KT 18/M01 A3012 RMK A01 T01781005  RH  029%=      5-min Rain = 0
KSC1 241843Z 01006KT 18/M01 A3012 RMK A01 T01751007  RH  029%=      5-min Rain = 0
KSC1 241844Z 35008KT 17/M01 A3012 RMK A01 T01721007  RH  030%=      5-min Rain = 0
KSC1 241845Z 35009KT 17/M01 A3012 RMK A01 T01711008  RH  030%=      5-min Rain = 0
KSC1 241846Z 00011KT 17/M01 A3012 RMK A01 T01721005  RH  030%=      5-min Rain = 0
KSC1 241847Z 02011KT 18/M00 A3012 RMK A01 T01771004  RH  029%=      5-min Rain = 0
KSC1 241848Z 01008KT 18/M01 A3012 RMK A01 T01771006  RH  029%=      5-min Rain = 0
KSC1 241849Z 01010KT 18/M00 A3012 RMK A01 T01771004  RH  029%=      5-min Rain = 0
KSC1 241850Z 35011KT 18/M01 A3012 RMK A01 T01771007  RH  029%=      5-min Rain = 0
KSC1 241851Z 35008KT 17/M01 A3012 RMK A01 T01741007  RH  029%=      5-min Rain = 0
KSC1 241852Z 36010KT 17/M01 A3012 RMK A01 T01741007  RH  029%=      5-min Rain = 0
KSC1 241853Z 34009G14KT 18/M01 A3011 RMK A01 T01751005  RH  030%=      5-min Rain = 0
KSC1 241854Z 34009KT 18/M01 A3011 RMK A01 T01761006  RH  029%=      5-min Rain = 0
KSC1 241855Z 01007G13KT 18/M00 A3011 RMK A01 T01771003  RH  029%=      5-min Rain = 0
KSC1 241856Z 03010KT 18/M00 A3011 RMK A01 T01821003  RH  029%=      5-min Rain = 0
KSC1 241857Z 02009KT 18/M01 A3011 RMK A01 T01831006  RH  028%=      5-min Rain = 0
KSC1 241858Z 01006KT 18/M01 A3011 RMK A01 T01821006  RH  028%=      5-min Rain = 0
KSC1 241859Z 00008KT 18/M01 A3011 RMK A01 T01821005  RH  028%=      5-min Rain = 0
KSC1 241900Z 00008KT 18/M01 A3011 RMK A01 T01821005  RH  028%=      5-min Rain = 0
KSC1 241901Z 36008KT 18/M00 A3011 RMK A01 T01811004  RH  029%=      5-min Rain = 0
KSC1 241902Z 35006KT 18/M00 A3011 RMK A01 T01841001  RH  029%=      5-min Rain = 0
KSC1 241903Z 00010KT 19/M00 A3011 RMK A01 T01871002  RH  028%=      5-min Rain = 0
KSC1 241904Z 01009KT 19/M01 A3011 RMK A01 T01851008  RH  027%=      5-min Rain = 0
KSC1 241905Z 01008G13KT 18/M01 A3011 RMK A01 T01811006  RH  028%=      5-min Rain = 0
KSC1 241906Z 35011KT 18/M01 A3011 RMK A01 T01821005  RH  028%=      5-min Rain = 0
KSC1 241907Z 36009KT 18/M01 A3011 RMK A01 T01801006  RH  028%=      5-min Rain = 0
KSC1 241908Z 35006KT 18/M01 A3011 RMK A01 T01781007  RH  029%=      5-min Rain = 0
KSC1 241909Z 36008KT 18/M01 A301 RMK A01 T01771006  RH  029%=      5-min Rain = 0
KSC1 241910Z 01008KT 18/M00 A3011 RMK A01 T01791004  RH  029%=      5-min Rain = 0
KSC1 241911Z 01008KT 18/M01 A3011 RMK A01 T01811006  RH  028%=      5-min Rain = 0
KSC1 241912Z 00008KT 18/M00 A3011 RMK A01 T01811003  RH  029%=      5-min Rain = 0
KSC1 241913Z 02010KT 19/M00 A3011 RMK A01 T01851002  RH  028%=      5-min Rain = 0
KSC1 241914Z 02011KT 19/M01 A3011 RMK A01 T01851006  RH  027%=      5-min Rain = 0
KSC1 241915Z 01009KT 18/M01 A3011 RMK A01 T01821007  RH  028%=      5-min Rain = 0
KSC1 241916Z 00009KT 18/M01 A3011 RMK A01 T01811005  RH  028%=      5-min Rain = 0
KSC1 241917Z 01006KT 18/M01 A301 RMK A01 T01801005  RH  029%=      5-min Rain = 0
KSC1 241918Z 02008KT 18/M01 A301 RMK A01 T01791005  RH  029%=      5-min Rain = 0
KSC1 241919Z 02009KT 18/M01 A301 RMK A01 T01811005  RH  028%=      5-min Rain = 0
KSC1 241920Z 01008KT 18/M01 A301 RMK A01 T01811005  RH  028%=      5-min Rain = 0
KSC1 241921Z 01010KT 18/M00 A301 RMK A01 T01831002  RH  029%=      5-min Rain = 0
KSC1 241922Z 36007KT 19/M00 A301 RMK A01 T01851004  RH  028%=      5-min Rain = 0
KSC1 241923Z 01009KT 18/M01 A301 RMK A01 T01841005  RH  028%=      5-min Rain = 0
KSC1 241924Z 02008KT 18/M01 A301 RMK A01 T01831005  RH  028%=      5-min Rain = 0
KSC1 241925Z 01008KT 18/M01 A301 RMK A01 T01811008  RH  028%=      5-min Rain = 0
KSC1 241926Z 34009KT 18/M01 A301 RMK A01 T01791007  RH  028%=      5-min Rain = 0
KSC1 241927Z 35009KT 18/M01 A301 RMK A01 T01791008  RH  028%=      5-min Rain = 0
KSC1 241928Z 01008KT 18/M01 A301 RMK A01 T01801005  RH  029%=      5-min Rain = 0
KSC1 241929Z 01010KT 18/M00 A301 RMK A01 T01831004  RH  028%=      5-min Rain = 0
KSC1 241930Z 01008KT 18/M01 A301 RMK A01 T01831008  RH  028%=      5-min Rain = 0
KSC1 241931Z 36011KT 18/M01 A3009 RMK A01 T01801008  RH  028%=      5-min Rain = 0
KSC1 241932Z 36010KT 18/M01 A3009 RMK A01 T01791008  RH  028%=      5-min Rain = 0
KSC1 241933Z 01008KT 18/M01 A3009 RMK A01 T01811006  RH  028%=      5-min Rain = 0
KSC1 241934Z 01007KT 18/M01 A3009 RMK A01 T01821006  RH  028%=      5-min Rain = 0
KSC1 241935Z 36006G12KT 18/M01 A3009 RMK A01 T01821007  RH  028%=      5-min Rain = 0
KSC1 241936Z 00011KT 18/M01 A3009 RMK A01 T01821006  RH  028%=      5-min Rain = 0
KSC1 241937Z 36008KT 18/M01 A3009 RMK A01 T01811008  RH  028%=      5-min Rain = 0
KSC1 241938Z 34009KT 18/M01 A3009 RMK A01 T01801006  RH  028%=      5-min Rain = 0
KSC1 241939Z 01009KT 18/M01 A3009 RMK A01 T01811005  RH  028%=      5-min Rain = 0
KSC1 241940Z 35010KT 18/M01 A3009 RMK A01 T01831006  RH  028%=      5-min Rain = 0
KSC1 241941Z 36006KT 18/M01 A3009 RMK A01 T01821005  RH  028%=      5-min Rain = 0
KSC1 241942Z 35007KT 18/M01 A3009 RMK A01 T01831005  RH  028%=      5-min Rain = 0
KSC1 241943Z 34006KT 18/M01 A3009 RMK A01 T01831007  RH  028%=      5-min Rain = 0
KSC1 241944Z 34007G12KT 18/M01 A3008 RMK A01 T01821007  RH  028%=      5-min Rain = 0
KSC1 241945Z 02008KT 18/M01 A3009 RMK A01 T01821006  RH  028%=      5-min Rain = 0
KSC1 241946Z 35007KT 18/M00 A3009 RMK A01 T01831003  RH  028%=      5-min Rain = 0
KSC1 241947Z 34009KT 19/M01 A3009 RMK A01 T01851006  RH  027%=      5-min Rain = 0
KSC1 241948Z 35007KT 18/M01 A3009 RMK A01 T01841006  RH  028%=      5-min Rain = 0
KSC1 241949Z 35010KT 19/M01 A3009 RMK A01 T01851007  RH  027%=      5-min Rain = 0
KSC1 241950Z 00011KT 18/M01 A3009 RMK A01 T01841007  RH  027%=      5-min Rain = 0
KSC1 241951Z 35009KT 18/M01 A3009 RMK A01 T01841006  RH  028%=      5-min Rain = 0
KSC1 241952Z 33007KT 18/M01 A3009 RMK A01 T01841007  RH  027%=      5-min Rain = 0
KSC1 241953Z 33005KT 18/M01 A3008 RMK A01 T01841006  RH  028%=      5-min Rain = 0
KSC1 241954Z 02006KT 18/M01 A3008 RMK A01 T01841008  RH  027%=      5-min Rain = 0
KSC1 241955Z 35004KT 18/M01 A3008 RMK A01 T01821008  RH  028%=      5-min Rain = 0
KSC1 241956Z 01008KT 18/M00 A3008 RMK A01 T01831004  RH  028%=      5-min Rain = 0
KSC1 241957Z 01007KT 19/M00 A3008 RMK A01 T01851004  RH  028%=      5-min Rain = 0
KSC1 241958Z 02006KT 19/M01 A3008 RMK A01 T01861005  RH  028%=      5-min Rain = 0
KSC1 241959Z 36007KT 19/M01 A3008 RMK A01 T01851006  RH  028%=      5-min Rain = 0
KSC1 242000Z 01008KT 19/M01 A3008 RMK A01 T01851005  RH  028%=      5-min Rain = 0
KSC1 242001Z 35008KT 19/M01 A3008 RMK A01 T01851006  RH  027%=      5-min Rain = 0
KSC1 242002Z 34005KT 18/M01 A3008 RMK A01 T01841007  RH  028%=      5-min Rain = 0
KSC1 242003Z 34009KT 18/M01 A3008 RMK A01 T01841005  RH  028%=      5-min Rain = 0
KSC1 242004Z 35010KT 19/M00 A3008 RMK A01 T01861004  RH  028%=      5-min Rain = 0
KSC1 242005Z 34008KT 19/M01 A3008 RMK A01 T01861006  RH  027%=      5-min Rain = 0
KSC1 242006Z 35007KT 19/M01 A3008 RMK A01 T01851005  RH  028%=      5-min Rain = 0
KSC1 242007Z 32006KT 19/M01 A3008 RMK A01 T01851005  RH  028%=      5-min Rain = 0
KSC1 242008Z 01006KT 19/M01 A3008 RMK A01 T01861005  RH  027%=      5-min Rain = 0
KSC1 242009Z 00007KT 19/M00 A3008 RMK A01 T01871003  RH  028%=      5-min Rain = 0
KSC1 242010Z 35007KT 19/M00 A3008 RMK A01 T01911003  RH  027%=      5-min Rain = 0
KSC1 242011Z 34006KT 19/M01 A3008 RMK A01 T01901007  RH  026%=      5-min Rain = 0
KSC1 242012Z 01009KT 19/M01 A3008 RMK A01 T01881006  RH  027%=      5-min Rain = 0
KSC1 242013Z 01009KT 19/M01 A3008 RMK A01 T01891006  RH  027%=      5-min Rain = 0
KSC1 242014Z 00005KT 19/M01 A3008 RMK A01 T01901006  RH  027%=      5-min Rain = 0
KSC1 242015Z 00007KT 19/M01 A3008 RMK A01 T01891007  RH  027%=      5-min Rain = 0
KSC1 242016Z 35008KT 19/M01 A3008 RMK A01 T01881006  RH  027%=      5-min Rain = 0
KSC1 242017Z 33007KT 19/M01 A3008 RMK A01 T01871008  RH  027%=      5-min Rain = 0
KSC1 242018Z 33008KT 19/M01 A3008 RMK A01 T01861007  RH  027%=      5-min Rain = 0
KSC1 242019Z 01009KT 19/M00 A3008 RMK A01 T01881004  RH  027%=      5-min Rain = 0
KSC1 242020Z 02009KT 19/M01 A3008 RMK A01 T01911006  RH  026%=      5-min Rain = 0
KSC1 242021Z 01007KT 19/M01 A3008 RMK A01 T01911007  RH  026%=      5-min Rain = 0
KSC1 242022Z 01008KT 19/M01 A3008 RMK A01 T01901007  RH  026%=      5-min Rain = 0
KSC1 242023Z 01007KT 19/M01 A3008 RMK A01 T01901008  RH  026%=      5-min Rain = 0
KSC1 242024Z 02007KT 19/M01 A3008 RMK A01 T01901010  RH  026%=      5-min Rain = 0
KSC1 242025Z 03006KT 19/M01 A3008 RMK A01 T01881010  RH  026%=      5-min Rain = 0
KSC1 242026Z 35006KT 19/M01 A3008 RMK A01 T01891007  RH  027%=      5-min Rain = 0
KSC1 242027Z 01006KT 19/M01 A3008 RMK A01 T01921006  RH  026%=      5-min Rain = 0
KSC1 242028Z 35007KT 19/M01 A3008 RMK A01 T01931007  RH  026%=      5-min Rain = 0
KSC1 242029Z 34006KT 19/M01 A3008 RMK A01 T01921008  RH  026%=      5-min Rain = 0
KSC1 242030Z 00006KT 19/M01 A3008 RMK A01 T01911007  RH  026%=      5-min Rain = 0
KSC1 242031Z 36006KT 19/M01 A3008 RMK A01 T01891007  RH  027%=      5-min Rain = 0
KSC1 242032Z 01004G10KT 19/M00 A3008 RMK A01 T01911002  RH  027%=      5-min Rain = 0
KSC1 242033Z 01009KT 19/M01 A3008 RMK A01 T01941005  RH  026%=      5-min Rain = 0
KSC1 242034Z 04007KT 19/M01 A3008 RMK A01 T01941006  RH  026%=      5-min Rain = 0
KSC1 242035Z 03007KT 19/M01 A3008 RMK A01 T01931006  RH  026%=      5-min Rain = 0
KSC1 242036Z 35007KT 19/M01 A3008 RMK A01 T01941005  RH  026%=      5-min Rain = 0
KSC1 242037Z 35005KT 19/M00 A3008 RMK A01 T01941004  RH  026%=      5-min Rain = 0
KSC1 242038Z 36007KT 20/M00 A3008 RMK A01 T01951003  RH  026%=      5-min Rain = 0
KSC1 242039Z 34006KT 20/M01 A3008 RMK A01 T01951005  RH  026%=      5-min Rain = 0
KSC1 242040Z 34003KT 19/M01 A3008 RMK A01 T01931007  RH  026%=      5-min Rain = 0
KSC1 242041Z 02004KT 19/M01 A3008 RMK A01 T01911007  RH  026%=      5-min Rain = 0
KSC1 242042Z 02009KT 19/M00 A3008 RMK A01 T01931004  RH  027%=      5-min Rain = 0
KSC1 242043Z 01008KT 19/M01 A3008 RMK A01 T01941006  RH  026%=      5-min Rain = 0
KSC1 242044Z 03008KT 19/M01 A3008 RMK A01 T01941006  RH  026%=      5-min Rain = 0
KSC1 242045Z 02006KT 19/M01 A3008 RMK A01 T01931007  RH  026%=      5-min Rain = 0
KSC1 242046Z 01005KT 19/M01 A3008 RMK A01 T01921008  RH  026%=      5-min Rain = 0
KSC1 242047Z 01006KT 19/M01 A3008 RMK A01 T01911007  RH  026%=      5-min Rain = 0
KSC1 242048Z 03005KT 19/M01 A3008 RMK A01 T01921005  RH  026%=      5-min Rain = 0
KSC1 242049Z 03004KT 19/M01 A3008 RMK A01 T01941007  RH  026%=      5-min Rain = 0
KSC1 242050Z 04002G8KT 19/M01 A3008 RMK A01 T01941006  RH  026%=      5-min Rain = 0
KSC1 242051Z 02004KT 20/M01 A3008 RMK A01 T01951007  RH  026%=      5-min Rain = 0
KSC1 242052Z 36007KT 19/M01 A3008 RMK A01 T01941007  RH  026%=      5-min Rain = 0
KSC1 242053Z 35008KT 19/M01 A3008 RMK A01 T01931008  RH  026%=      5-min Rain = 0
KSC1 242054Z 02007KT 19/M01 A3008 RMK A01 T01931008  RH  026%=      5-min Rain = 0
KSC1 242055Z 01005KT 19/M01 A3008 RMK A01 T01931008  RH  026%=      5-min Rain = 0
KSC1 242056Z 02007KT 19/M01 A3008 RMK A01 T01931008  RH  026%=      5-min Rain = 0
KSC1 242057Z 01007KT 19/M01 A3008 RMK A01 T01941007  RH  026%=      5-min Rain = 0
KSC1 242058Z 02003KT 19/M01 A3008 RMK A01 T01941006  RH  026%=      5-min Rain = 0
KSC1 242059Z 35006KT 19/M01 A3008 RMK A01 T01941007  RH  026%=      5-min Rain = 0
KSC1 242100Z 33007KT 19/M01 A3008 RMK A01 T01941007  RH  026%=      5-min Rain = 0
KSC1 242101Z 33005KT 19/M01 A3008 RMK A01 T01931007  RH  026%=      5-min Rain = 0
KSC1 242102Z 33006KT 19/M01 A3008 RMK A01 T01921007  RH  026%=      5-min Rain = 0
KSC1 242103Z 00006G12KT 19/M01 A3008 RMK A01 T01931005  RH  026%=      5-min Rain = 0
KSC1 242104Z 35008KT 20/M00 A3008 RMK A01 T01971004  RH  026%=      5-min Rain = 0
KSC1 242105Z 34006KT 20/M01 A3008 RMK A01 T01981006  RH  025%=      5-min Rain = 0
KSC1 242106Z 03006KT 20/M00 A3008 RMK A01 T01991003  RH  026%=      5-min Rain = 0
KSC1 242107Z 03007KT 20/M01 A3008 RMK A01 T02001008  RH  025%=      5-min Rain = 0
KSC1 242108Z 04006KT 20/M01 A3008 RMK A01 T01971010  RH  025%=      5-min Rain = 0
KSC1 242109Z 03005KT 20/M01 A3008 RMK A01 T01951011  RH  025%=      5-min Rain = 0
KSC1 242110Z 03003KT 19/M01 A3008 RMK A01 T01941010  RH  025%=      5-min Rain = 0
KSC1 242111Z 35003KT 19/M01 A3008 RMK A01 T01941009  RH  025%=      5-min Rain = 0
KSC1 242112Z 36006KT 19/M01 A3008 RMK A01 T01941006  RH  026%=      5-min Rain = 0
KSC1 242113Z 35006KT 20/M01 A3008 RMK A01 T01961006  RH  026%=      5-min Rain = 0
KSC1 242114Z 34007KT 20/M01 A3008 RMK A01 T01971006  RH  025%=      5-min Rain = 0
KSC1 242115Z 00006KT 20/M01 A3008 RMK A01 T01971006  RH  026%=      5-min Rain = 0
KSC1 242116Z 01006KT 20/M01 A3008 RMK A01 T01981005  RH  025%=      5-min Rain = 0
KSC1 242117Z 01006KT 20/M01 A3008 RMK A01 T01971007  RH  025%=      5-min Rain = 0
KSC1 242118Z 02004KT 20/M00 A3008 RMK A01 T01981004  RH  026%=      5-min Rain = 0
KSC1 242119Z 02006KT 20/M00 A3008 RMK A01 T02001004  RH  025%=      5-min Rain = 0
KSC1 242120Z 02008KT 20/M01 A3008 RMK A01 T02011007  RH  025%=      5-min Rain = 0
KSC1 242121Z 02006KT 20/M01 A3008 RMK A01 T01991007  RH  025%=      5-min Rain = 0
KSC1 242122Z 01006KT 20/M01 A3008 RMK A01 T01991007  RH  025%=      5-min Rain = 0
KSC1 242123Z 35004KT 20/M01 A3008 RMK A01 T01991009  RH  025%=      5-min Rain = 0
KSC1 242124Z 35005KT 20/M01 A3008 RMK A01 T01971010  RH  025%=      5-min Rain = 0
KSC1 242125Z 35007KT 20/M01 A3008 RMK A01 T01961010  RH  025%=      5-min Rain = 0
KSC1 242126Z 34007KT 20/M01 A3008 RMK A01 T01961010  RH  025%=      5-min Rain = 0
KSC1 242127Z 34005KT 20/M01 A3008 RMK A01 T01961010  RH  025%=      5-min Rain = 0
KSC1 242128Z 01003KT 20/M01 A3008 RMK A01 T01951010  RH  025%=      5-min Rain = 0
KSC1 242129Z 02001KT 20/M01 A3008 RMK A01 T01951010  RH  025%=      5-min Rain = 0
KSC1 242130Z 02000KT 20/M01 A3008 RMK A01 T01951009  RH  025%=      5-min Rain = 0
KSC1 242131Z 01004KT 20/M01 A3008 RMK A01 T01971009  RH  025%=      5-min Rain = 0
KSC1 242132Z 02004KT 20/M01 A3008 RMK A01 T01991006  RH  025%=      5-min Rain = 0
KSC1 242133Z 01005KT 20/M01 A3008 RMK A01 T02011006  RH  025%=      5-min Rain = 0
KSC1 242134Z 01006KT 20/M01 A3007 RMK A01 T02021006  RH  025%=      5-min Rain = 0
KSC1 242135Z 02006KT 20/M01 A3008 RMK A01 T02031006  RH  025%=      5-min Rain = 0
KSC1 242136Z 02003KT 20/M01 A3008 RMK A01 T02021006  RH  025%=      5-min Rain = 0
KSC1 242137Z 35004KT 20/M01 A3007 RMK A01 T02021008  RH  024%=      5-min Rain = 0
KSC1 242138Z 01004KT 20/M01 A3008 RMK A01 T02001009  RH  024%=      5-min Rain = 0
KSC1 242139Z 01004KT 20/M01 A3008 RMK A01 T01991008  RH  025%=      5-min Rain = 0
KSC1 242140Z 01006G11KT 20/M01 A3008 RMK A01 T02001005  RH  025%=      5-min Rain = 0
KSC1 242141Z 01009KT 20/M01 A3008 RMK A01 T02021006  RH  025%=      5-min Rain = 0
KSC1 242142Z 00007KT 20/M01 A3008 RMK A01 T02021007  RH  024%=      5-min Rain = 0
KSC1 242143Z 00008KT 20/M01 A3008 RMK A01 T01991010  RH  025%=      5-min Rain = 0
KSC1 242144Z 00006KT 20/M01 A3008 RMK A01 T01981008  RH  025%=      5-min Rain = 0
KSC1 242145Z 35004KT 20/M01 A3008 RMK A01 T01981008  RH  025%=      5-min Rain = 0
KSC1 242146Z 33004KT 20/M01 A3008 RMK A01 T01981008  RH  025%=      5-min Rain = 0
KSC1 242147Z 31004KT 20/M01 A3008 RMK A01 T01971010  RH  025%=      5-min Rain = 0
KSC1 242148Z 29003KT 20/M01 A3008 RMK A01 T01971010  RH  025%=      5-min Rain = 0
KSC1 242149Z 29004KT 20/M01 A3008 RMK A01 T01971007  RH  025%=      5-min Rain = 0
KSC1 242150Z 33003KT 20/M01 A3008 RMK A01 T01981009  RH  025%=      5-min Rain = 0
KSC1 242151Z 01004KT 20/M01 A3008 RMK A01 T01991008  RH  025%=      5-min Rain = 0
KSC1 242152Z 01005KT 20/M01 A3008 RMK A01 T02001008  RH  025%=      5-min Rain = 0
KSC1 242153Z 02004KT 20/M01 A3008 RMK A01 T02001009  RH  024%=      5-min Rain = 0
KSC1 242154Z 04004KT 20/M01 A3008 RMK A01 T02001008  RH  025%=      5-min Rain = 0
KSC1 242155Z 03004KT 20/M01 A3008 RMK A01 T02011007  RH  025%=      5-min Rain = 0
KSC1 242156Z 01004KT 20/M01 A3008 RMK A01 T02021006  RH  025%=      5-min Rain = 0
KSC1 242157Z 01004KT 20/M01 A3008 RMK A01 T02031009  RH  024%=      5-min Rain = 0
KSC1 242158Z 35005KT 20/M01 A3007 RMK A01 T02021008  RH  024%=      5-min Rain = 0
KSC1 242159Z 01006KT 20/M01 A3007 RMK A01 T02021008  RH  024%=      5-min Rain = 0
KSC1 242200Z 02003KT 20/M01 A3008 RMK A01 T02001012  RH  024%=      5-min Rain = 0
KSC1 242201Z 02005KT 20/M01 A3008 RMK A01 T01981011  RH  024%=      5-min Rain = 0
KSC1 242202Z 02008KT 20/M01 A3008 RMK A01 T01971010  RH  025%=      5-min Rain = 0
KSC1 242203Z 00007KT 20/M01 A3008 RMK A01 T01981010  RH  025%=      5-min Rain = 0
KSC1 242204Z 01006KT 20/M01 A3008 RMK A01 T01981010  RH  025%=      5-min Rain = 0
KSC1 242205Z 02004KT 20/M01 A3008 RMK A01 T01971010  RH  025%=      5-min Rain = 0
KSC1 242206Z 06005KT 20/M01 A3008 RMK A01 T01971009  RH  025%=      5-min Rain = 0
KSC1 242207Z 02004KT 20/M01 A3007 RMK A01 T01991007  RH  025%=      5-min Rain = 0
KSC1 242208Z 36003KT 20/M01 A3007 RMK A01 T02011006  RH  025%=      5-min Rain = 0
KSC1 242209Z 02004KT 20/M01 A3007 RMK A01 T02031007  RH  024%=      5-min Rain = 0
KSC1 242210Z 04005KT 20/M01 A3007 RMK A01 T02031009  RH  024%=      5-min Rain = 0
KSC1 242211Z 04006KT 20/M01 A3007 RMK A01 T02021008  RH  024%=      5-min Rain = 0
KSC1 242212Z 03007KT 20/M01 A3007 RMK A01 T02021008  RH  024%=      5-min Rain = 0
KSC1 242213Z 02004KT 20/M01 A3007 RMK A01 T02021009  RH  024%=      5-min Rain = 0
KSC1 242214Z 02004KT 20/M01 A3007 RMK A01 T02011011  RH  024%=      5-min Rain = 0
KSC1 242215Z 00005KT 20/M01 A3007 RMK A01 T02001009  RH  025%=      5-min Rain = 0
KSC1 242216Z 02004KT 20/M01 A3007 RMK A01 T02001011  RH  024%=      5-min Rain = 0
KSC1 242217Z 04005KT 20/M01 A3007 RMK A01 T01991009  RH  025%=      5-min Rain = 0
KSC1 242218Z 05006KT 20/M01 A3007 RMK A01 T02001008  RH  025%=      5-min Rain = 0
KSC1 242219Z 05006KT 20/M01 A3007 RMK A01 T02001008  RH  025%=      5-min Rain = 0
KSC1 242220Z 05007KT 20/M01 A3007 RMK A01 T01991008  RH  025%=      5-min Rain = 0
KSC1 242221Z 06006KT 20/M01 A3007 RMK A01 T01991009  RH  025%=      5-min Rain = 0
KSC1 242222Z 07004KT 20/M01 A3007 RMK A01 T01981011  RH  025%=      5-min Rain = 0
KSC1 242223Z 07005KT 20/M01 A3007 RMK A01 T01971009  RH  025%=      5-min Rain = 0
KSC1 242224Z 06004KT 20/M01 A3007 RMK A01 T01981009  RH  025%=      5-min Rain = 0
KSC1 242225Z 05002KT 20/M01 A3007 RMK A01 T01981010  RH  025%=      5-min Rain = 0
KSC1 242226Z 07001KT 20/M01 A3007 RMK A01 T01991010  RH  024%=      5-min Rain = 0
KSC1 242227Z 04003KT 20/M01 A3007 RMK A01 T01991008  RH  025%=      5-min Rain = 0
KSC1 242228Z 07005KT 20/M01 A3007 RMK A01 T02011008  RH  025%=      5-min Rain = 0
KSC1 242229Z 05004KT 20/M01 A3007 RMK A01 T02011009  RH  024%=      5-min Rain = 0
KSC1 242230Z 04003KT 20/M01 A3007 RMK A01 T02011009  RH  024%=      5-min Rain = 0
KSC1 242231Z 05005KT 20/M01 A3007 RMK A01 T02021008  RH  024%=      5-min Rain = 0
KSC1 242232Z 01007KT 20/M01 A3007 RMK A01 T02021008  RH  024%=      5-min Rain = 0
KSC1 242233Z 02005KT 20/M01 A3007 RMK A01 T02011010  RH  024%=      5-min Rain = 0
KSC1 242234Z 35006KT 20/M01 A3007 RMK A01 T01991009  RH  025%=      5-min Rain = 0
KSC1 242235Z 33003KT 20/M01 A3007 RMK A01 T01991009  RH  025%=      5-min Rain = 0
KSC1 242236Z 00005KT 20/M01 A3007 RMK A01 T01991008  RH  025%=      5-min Rain = 0
KSC1 242237Z 00006KT 20/M01 A3007 RMK A01 T02001008  RH  025%=      5-min Rain = 0
KSC1 242238Z 01005KT 20/M01 A3007 RMK A01 T02011010  RH  024%=      5-min Rain = 0
KSC1 242239Z 34007KT 20/M01 A3007 RMK A01 T02001010  RH  024%=      5-min Rain = 0
KSC1 242240Z 34005KT 20/M01 A3007 RMK A01 T01991010  RH  024%=      5-min Rain = 0
KSC1 242241Z 05005KT 20/M01 A3007 RMK A01 T02001008  RH  025%=      5-min Rain = 0
KSC1 242242Z 05006KT 20/M01 A3007 RMK A01 T02011008  RH  024%=      5-min Rain = 0
KSC1 242243Z 06005KT 20/M01 A3007 RMK A01 T02021010  RH  024%=      5-min Rain = 0
KSC1 242244Z 07006KT 20/M01 A3007 RMK A01 T02011012  RH  024%=      5-min Rain = 0
KSC1 242245Z 08005KT 20/M01 A3007 RMK A01 T01991013  RH  024%=      5-min Rain = 0
KSC1 242246Z 09002KT 20/M01 A3007 RMK A01 T01971014  RH  024%=      5-min Rain = 0
KSC1 242247Z 13002KT 20/M01 A3007 RMK A01 T01961013  RH  024%=      5-min Rain = 0
KSC1 242248Z 15000KT 20/M01 A3007 RMK A01 T01971009  RH  025%=      5-min Rain = 0
KSC1 242249Z 14001KT 20/M01 A3007 RMK A01 T02001007  RH  025%=      5-min Rain = 0
KSC1 242250Z 14002KT 20/M01 A3007 RMK A01 T02021010  RH  024%=      5-min Rain = 0
KSC1 242251Z 09001KT 20/M01 A3007 RMK A01 T02041010  RH  024%=      5-min Rain = 0
KSC1 242252Z 05001KT 21/M01 A3007 RMK A01 T02051008  RH  024%=      5-min Rain = 0
KSC1 242253Z 03004KT 21/M01 A3007 RMK A01 T02061010  RH  023%=      5-min Rain = 0
KSC1 242254Z 02005KT 20/M01 A3007 RMK A01 T02041010  RH  024%=      5-min Rain = 0
KSC1 242255Z 02005KT 20/M01 A3007 RMK A01 T02031009  RH  024%=      5-min Rain = 0
KSC1 242256Z 02005KT 20/M01 A3007 RMK A01 T02031009  RH  024%=      5-min Rain = 0
KSC1 242257Z 03007KT 20/M01 A3007 RMK A01 T02031009  RH  024%=      5-min Rain = 0
KSC1 242258Z 03006KT 20/M01 A3007 RMK A01 T02021012  RH  024%=      5-min Rain = 0
KSC1 242259Z 05004KT 20/M01 A3007 RMK A01 T02011011  RH  024%=      5-min Rain = 0
KSC1 242300Z 05003KT 20/M01 A3007 RMK A01 T02001013  RH  024%=      5-min Rain = 0
KSC1 242301Z 03004KT 20/M01 A3007 RMK A01 T01991011  RH  024%=      5-min Rain = 0
KSC1 242302Z 03005KT 20/M01 A3007 RMK A01 T01991012  RH  024%=      5-min Rain = 0
KSC1 242303Z 03004KT 20/M01 A3007 RMK A01 T01991012  RH  024%=      5-min Rain = 0
KSC1 242304Z 05003KT 20/M01 A3007 RMK A01 T01981013  RH  024%=      5-min Rain = 0
KSC1 242305Z 03003KT 20/M01 A3007 RMK A01 T01981013  RH  024%=      5-min Rain = 0
KSC1 242306Z 34004KT 20/M01 A3007 RMK A01 T01971012  RH  024%=      5-min Rain = 0
KSC1 242307Z 36008KT 20/M01 A3007 RMK A01 T01971011  RH  024%=      5-min Rain = 0
KSC1 242308Z 05005KT 20/M01 A3007 RMK A01 T01981009  RH  025%=      5-min Rain = 0
KSC1 242309Z 03004KT 20/M01 A3007 RMK A01 T02001008  RH  025%=      5-min Rain = 0
KSC1 242310Z 04006KT 20/M01 A3007 RMK A01 T02011009  RH  024%=      5-min Rain = 0
KSC1 242311Z 03007KT 20/M01 A3007 RMK A01 T02011009  RH  024%=      5-min Rain = 0
KSC1 242312Z 02007KT 20/M01 A3007 RMK A01 T02001011  RH  024%=      5-min Rain = 0
KSC1 242313Z 03006KT 20/M01 A3007 RMK A01 T01991011  RH  024%=      5-min Rain = 0
KSC1 242314Z 03005KT 20/M01 A3007 RMK A01 T01981010  RH  025%=      5-min Rain = 0
KSC1 242315Z 04004KT 20/M01 A3007 RMK A01 T01991010  RH  024%=      5-min Rain = 0
KSC1 242316Z 04007KT 20/M01 A3007 RMK A01 T01991010  RH  025%=      5-min Rain = 0
KSC1 242317Z 05006KT 20/M01 A3007 RMK A01 T01991011  RH  024%=      5-min Rain = 0
KSC1 242318Z 04005KT 20/M01 A3007 RMK A01 T01981012  RH  024%=      5-min Rain = 0
KSC1 242319Z 03006KT 20/M01 A3007 RMK A01 T01981010  RH  025%=      5-min Rain = 0
KSC1 242320Z 03006KT 20/M01 A3007 RMK A01 T01981011  RH  024%=      5-min Rain = 0
KSC1 242321Z 04006KT 20/M01 A3007 RMK A01 T01981011  RH  024%=      5-min Rain = 0
KSC1 242322Z 01004KT 20/M01 A3007 RMK A01 T01971013  RH  024%=      5-min Rain = 0
KSC1 242323Z 35004KT 20/M01 A3007 RMK A01 T01961013  RH  024%=      5-min Rain = 0
KSC1 242324Z 01005KT 20/M01 A3007 RMK A01 T01951013  RH  025%=      5-min Rain = 0
KSC1 242325Z 00004KT 20/M01 A3007 RMK A01 T01961013  RH  024%=      5-min Rain = 0
KSC1 242326Z 04005KT 20/M01 A3007 RMK A01 T01951013  RH  024%=      5-min Rain = 0
KSC1 242327Z 05005KT 20/M01 A3007 RMK A01 T01951012  RH  025%=      5-min Rain = 0
KSC1 242328Z 03007KT 20/M01 A3007 RMK A01 T01951011  RH  025%=      5-min Rain = 0
KSC1 242329Z 04007KT 20/M01 A3007 RMK A01 T01961011  RH  025%=      5-min Rain = 0
KSC1 242330Z 04005KT 20/M01 A3007 RMK A01 T01961011  RH  025%=      5-min Rain = 0
KSC1 242331Z 04006KT 20/M01 A3007 RMK A01 T01961011  RH  025%=      5-min Rain = 0
KSC1 242332Z 05005KT 20/M01 A3007 RMK A01 T01971011  RH  025%=      5-min Rain = 0
KSC1 242333Z 05005KT 20/M01 A3007 RMK A01 T01961012  RH  024%=      5-min Rain = 0
KSC1 242334Z 03004KT 20/M01 A3007 RMK A01 T01961011  RH  025%=      5-min Rain = 0
KSC1 242335Z 03005KT 20/M01 A3007 RMK A01 T01961011  RH  025%=      5-min Rain = 0
KSC1 242336Z 03003KT 20/M01 A3007 RMK A01 T01951012  RH  025%=      5-min Rain = 0
KSC1 242337Z 01003KT 19/M01 A3007 RMK A01 T01941011  RH  025%=      5-min Rain = 0
KSC1 242338Z 02007KT 20/M01 A3007 RMK A01 T01951009  RH  025%=      5-min Rain = 0
KSC1 242339Z 02007KT 20/M01 A3007 RMK A01 T01951010  RH  025%=      5-min Rain = 0
KSC1 242340Z 03006KT 20/M01 A3007 RMK A01 T01951011  RH  025%=      5-min Rain = 0
KSC1 242341Z 03004KT 19/M01 A3007 RMK A01 T01941011  RH  025%=      5-min Rain = 0
KSC1 242342Z 03005KT 19/M01 A3007 RMK A01 T01941011  RH  025%=      5-min Rain = 0
KSC1 242343Z 03006KT 19/M01 A3007 RMK A01 T01941012  RH  025%=      5-min Rain = 0
KSC1 242344Z 03005KT 19/M01 A3007 RMK A01 T01931012  RH  025%=      5-min Rain = 0
KSC1 242345Z 03005KT 19/M01 A3007 RMK A01 T01941011  RH  025%=      5-min Rain = 0
KSC1 242346Z 06005KT 19/M01 A3007 RMK A01 T01941012  RH  025%=      5-min Rain = 0
KSC1 242347Z 05005KT 19/M01 A3007 RMK A01 T01941012  RH  025%=      5-min Rain = 0
KSC1 242348Z 02003KT 19/M01 A3007 RMK A01 T01941011  RH  025%=      5-min Rain = 0
KSC1 242349Z 02004KT 19/M01 A3007 RMK A01 T01941009  RH  025%=      5-min Rain = 0
KSC1 242350Z 01006KT 20/M01 A3007 RMK A01 T01951010  RH  025%=      5-min Rain = 0
KSC1 242351Z 03005KT 20/M01 A3007 RMK A01 T01951011  RH  025%=      5-min Rain = 0
KSC1 242352Z 03006KT 19/M01 A3007 RMK A01 T01941011  RH  025%=      5-min Rain = 0
KSC1 242353Z 04006KT 19/M01 A3007 RMK A01 T01931011  RH  025%=      5-min Rain = 0
KSC1 242354Z 04007KT 19/M01 A3007 RMK A01 T01921011  RH  025%=      5-min Rain = 0
KSC1 242355Z 05006KT 19/M01 A3007 RMK A01 T01921011  RH  025%=      5-min Rain = 0
KSC1 242356Z 03005KT 19/M01 A3007 RMK A01 T01911010  RH  026%=      5-min Rain = 0
KSC1 242357Z 04006KT 19/M01 A3007 RMK A01 T01911010  RH  026%=      5-min Rain = 0
KSC1 242358Z 03005KT 19/M01 A3007 RMK A01 T01911010  RH  026%=      5-min Rain = 0
KSC1 242359Z 02005KT 19/M01 A3007 RMK A01 T01901010  RH  026%=      5-min Rain = 0
KSC1 250000Z 02005KT 19/M01 A3007 RMK A01 T01901010  RH  026%=      5-min Rain = 0
KSC1 250001Z 03005KT 19/M01 A3007 RMK A01 T01901011  RH  026%=      5-min Rain = 0
KSC1 250002Z 05005KT 19/M01 A3007 RMK A01 T01901010  RH  026%=      5-min Rain = 0
KSC1 250003Z 04005KT 19/M01 A3007 RMK A01 T01891009  RH  026%=      5-min Rain = 0
KSC1 250004Z 03007KT 19/M01 A3007 RMK A01 T01881010  RH  026%=      5-min Rain = 0
KSC1 250005Z 03007KT 19/M01 A3007 RMK A01 T01881011  RH  026%=      5-min Rain = 0
KSC1 250006Z 02007KT 19/M01 A3007 RMK A01 T01871012  RH  026%=      5-min Rain = 0
KSC1 250007Z 01006KT 19/M01 A3007 RMK A01 T01871012  RH  026%=      5-min Rain = 0
KSC1 250008Z 02006KT 19/M01 A3007 RMK A01 T01871011  RH  026%=      5-min Rain = 0
KSC1 250009Z 01004KT 19/M01 A3007 RMK A01 T01861011  RH  026%=      5-min Rain = 0
KSC1 250010Z 02005KT 19/M01 A3007 RMK A01 T01861010  RH  027%=      5-min Rain = 0
KSC1 250011Z 02006KT 19/M01 A3007 RMK A01 T01851011  RH  027%=      5-min Rain = 0
KSC1 250012Z 02006KT 19/M01 A3007 RMK A01 T01851011  RH  027%=      5-min Rain = 0
KSC1 250013Z 03005KT 19/M01 A3007 RMK A01 T01851011  RH  027%=      5-min Rain = 0
KSC1 250014Z 03006KT 18/M01 A3007 RMK A01 T01841011  RH  027%=      5-min Rain = 0
KSC1 250015Z 02005KT 18/M01 A3007 RMK A01 T01841010  RH  027%=      5-min Rain = 0
KSC1 250016Z 02006KT 18/M01 A3007 RMK A01 T01831010  RH  027%=      5-min Rain = 0
KSC1 250017Z 02006KT 18/M01 A3007 RMK A01 T01811010  RH  027%=      5-min Rain = 0
KSC1 250018Z 03005KT 18/M01 A3007 RMK A01 T01811010  RH  027%=      5-min Rain = 0
KSC1 250019Z 03005KT 18/M01 A3007 RMK A01 T01801010  RH  028%=      5-min Rain = 0
KSC1 250020Z 03005KT 18/M01 A3007 RMK A01 T01791010  RH  028%=      5-min Rain = 0
KSC1 250021Z 03006KT 18/M01 A3007 RMK A01 T01781010  RH  028%=      5-min Rain = 0
KSC1 250022Z 03006KT 18/M01 A3007 RMK A01 T01771010  RH  028%=      5-min Rain = 0
KSC1 250023Z 03006KT 18/M01 A3007 RMK A01 T01771010  RH  028%=      5-min Rain = 0
KSC1 250024Z 04005KT 18/M01 A3007 RMK A01 T01771010  RH  028%=      5-min Rain = 0
KSC1 250025Z 04005KT 18/M01 A3007 RMK A01 T01771010  RH  028%=      5-min Rain = 0
KSC1 250026Z 03005KT 18/M01 A3007 RMK A01 T01761010  RH  028%=      5-min Rain = 0
KSC1 250027Z 03005KT 18/M01 A3007 RMK A01 T01751010  RH  029%=      5-min Rain = 0
KSC1 250028Z 03005KT 17/M01 A3007 RMK A01 T01741010  RH  029%=      5-min Rain = 0
KSC1 250029Z 03005KT 17/M01 A3007 RMK A01 T01731010  RH  029%=      5-min Rain = 0
KSC1 250030Z 03005KT 17/M01 A3007 RMK A01 T01721010  RH  029%=      5-min Rain = 0
KSC1 250031Z 03005KT 17/M01 A3007 RMK A01 T01711010  RH  029%=      5-min Rain = 0
KSC1 250032Z 03005KT 17/M01 A3007 RMK A01 T01701010  RH  029%=      5-min Rain = 0
KSC1 250033Z 03005KT 17/M01 A3007 RMK A01 T01691010  RH  030%=      5-min Rain = 0
KSC1 250034Z 03005KT 17/M01 A3007 RMK A01 T01691010  RH  030%=      5-min Rain = 0
KSC1 250035Z 03005KT 17/M01 A3007 RMK A01 T01681010  RH  030%=      5-min Rain = 0
KSC1 250036Z 03005KT 17/M01 A3007 RMK A01 T01671010  RH  030%=      5-min Rain = 0
KSC1 250037Z 03004KT 17/M01 A3007 RMK A01 T01661010  RH  030%=      5-min Rain = 0
KSC1 250038Z 03005KT 17/M01 A3007 RMK A01 T01651010  RH  030%=      5-min Rain = 0
KSC1 250039Z 03005KT 17/M01 A3007 RMK A01 T01651010  RH  030%=      5-min Rain = 0
KSC1 250040Z 02005KT 17/M01 A3007 RMK A01 T01651010  RH  030%=      5-min Rain = 0
KSC1 250041Z 03005KT 16/M01 A3007 RMK A01 T01641010  RH  030%=      5-min Rain = 0
KSC1 250042Z 03005KT 16/M01 A3007 RMK A01 T01631010  RH  031%=      5-min Rain = 0
KSC1 250043Z 03005KT 16/M01 A3007 RMK A01 T01631010  RH  031%=      5-min Rain = 0
KSC1 250044Z 03005KT 16/M01 A3007 RMK A01 T01621010  RH  031%=      5-min Rain = 0
KSC1 250045Z 03005KT 16/M01 A3007 RMK A01 T01611010  RH  031%=      5-min Rain = 0
KSC1 250046Z 04005KT 16/M01 A3008 RMK A01 T01601010  RH  031%=      5-min Rain = 0
KSC1 250047Z 04005KT 16/M01 A3008 RMK A01 T01591010  RH  031%=      5-min Rain = 0
KSC1 250048Z 04005KT 16/M01 A3008 RMK A01 T01581010  RH  032%=      5-min Rain = 0
KSC1 250049Z 04004KT 16/M01 A3008 RMK A01 T01571010  RH  032%=      5-min Rain = 0
KSC1 250050Z 04004KT 16/M01 A3008 RMK A01 T01561010  RH  032%=      5-min Rain = 0
KSC1 250051Z 04004KT 16/M01 A3008 RMK A01 T01551011  RH  032%=      5-min Rain = 0
KSC1 250052Z 05003KT 16/M01 A3008 RMK A01 T01551010  RH  032%=      5-min Rain = 0
KSC1 250053Z 04004KT 15/M01 A3008 RMK A01 T01541011  RH  032%=      5-min Rain = 0
KSC1 250054Z 05003KT 15/M01 A3008 RMK A01 T01531011  RH  033%=      5-min Rain = 0
KSC1 250055Z 05004KT 15/M01 A3008 RMK A01 T01521011  RH  033%=      5-min Rain = 0
KSC1 250056Z 04004KT 15/M01 A3008 RMK A01 T01511010  RH  033%=      5-min Rain = 0
KSC1 250057Z 04004KT 15/M01 A3008 RMK A01 T01511010  RH  033%=      5-min Rain = 0
KSC1 250058Z 04003KT 15/M01 A3008 RMK A01 T01501010  RH  033%=      5-min Rain = 0
KSC1 250059Z 05003KT 15/M01 A3008 RMK A01 T01491011  RH  033%=      5-min Rain = 0
KSC1 250100Z 04003KT 15/M01 A3008 RMK A01 T01481011  RH  034%=      5-min Rain = 0
KSC1 250101Z 04003KT 15/M01 A3008 RMK A01 T01471010  RH  034%=      5-min Rain = 0
KSC1 250102Z 04003KT 15/M01 A3008 RMK A01 T01471011  RH  034%=      5-min Rain = 0
KSC1 250103Z 04003KT 15/M01 A3009 RMK A01 T01461011  RH  034%=      5-min Rain = 0
KSC1 250104Z 04003KT 15/M01 A3009 RMK A01 T01451010  RH  034%=      5-min Rain = 0
KSC1 250105Z 05004KT 14/M01 A3009 RMK A01 T01441011  RH  034%=      5-min Rain = 0
KSC1 250106Z 05004KT 14/M01 A3009 RMK A01 T01431011  RH  035%=      5-min Rain = 0
KSC1 250107Z 04004KT 14/M01 A3009 RMK A01 T01421011  RH  035%=      5-min Rain = 0
KSC1 250108Z 04004KT 14/M01 A3009 RMK A01 T01411011  RH  035%=      5-min Rain = 0
KSC1 250109Z 04003KT 14/M01 A3009 RMK A01 T01401011  RH  035%=      5-min Rain = 0
KSC1 250110Z 05003KT 14/M01 A3009 RMK A01 T01391011  RH  035%=      5-min Rain = 0
KSC1 250111Z 05003KT 14/M01 A3009 RMK A01 T01391011  RH  036%=      5-min Rain = 0
KSC1 250112Z 05004KT 14/M01 A3009 RMK A01 T01381011  RH  036%=      5-min Rain = 0
KSC1 250113Z 05003KT 14/M01 A3009 RMK A01 T01371011  RH  036%=      5-min Rain = 0
KSC1 250114Z 04004KT 14/M01 A3009 RMK A01 T01371011  RH  036%=      5-min Rain = 0
KSC1 250115Z 04003KT 14/M01 A3009 RMK A01 T01361011  RH  036%=      5-min Rain = 0
KSC1 250116Z 04003KT 14/M01 A3009 RMK A01 T01351012  RH  036%=      5-min Rain = 0
KSC1 250117Z 04003KT 13/M01 A3009 RMK A01 T01341011  RH  037%=      5-min Rain = 0
KSC1 250118Z 04004KT 13/M01 A3009 RMK A01 T01341011  RH  037%=      5-min Rain = 0
KSC1 250119Z 05003KT 13/M01 A3009 RMK A01 T01331011  RH  037%=      5-min Rain = 0
KSC1 250120Z 05003KT 13/M01 A3009 RMK A01 T01331010  RH  037%=      5-min Rain = 0
KSC1 250121Z 05003KT 13/M01 A3009 RMK A01 T01331011  RH  037%=      5-min Rain = 0
KSC1 250122Z 05003KT 13/M01 A3009 RMK A01 T01321011  RH  037%=      5-min Rain = 0
KSC1 250123Z 05003KT 13/M01 A3009 RMK A01 T01311011  RH  037%=      5-min Rain = 0
KSC1 250124Z 05003KT 13/M01 A3009 RMK A01 T01301012  RH  037%=      5-min Rain = 0
KSC1 250125Z 06002KT 13/M01 A3009 RMK A01 T01291012  RH  038%=      5-min Rain = 0
KSC1 250126Z 06002KT 13/M01 A3009 RMK A01 T01281011  RH  038%=      5-min Rain = 0
KSC1 250127Z 07002KT 13/M01 A3009 RMK A01 T01261012  RH  038%=      5-min Rain = 0
KSC1 250128Z 06002KT 12/M01 A3009 RMK A01 T01241013  RH  039%=      5-min Rain = 0
KSC1 250129Z 07003KT 12/M01 A3009 RMK A01 T01211014  RH  039%=      5-min Rain = 0
KSC1 250130Z 07002KT 12/M01 A3009 RMK A01 T01181014  RH  040%=      5-min Rain = 0
KSC1 250131Z 06002KT 12/M01 A3009 RMK A01 T01171014  RH  040%=      5-min Rain = 0
KSC1 250132Z 06003KT 12/M01 A3009 RMK A01 T01161013  RH  041%=      5-min Rain = 0
KSC1 250133Z 06003KT 12/M01 A3009 RMK A01 T01151012  RH  041%=      5-min Rain = 0
KSC1 250134Z 06003KT 12/M01 A3009 RMK A01 T01151012  RH  041%=      5-min Rain = 0
KSC1 250135Z 07003KT 12/M01 A3009 RMK A01 T01151011  RH  042%=      5-min Rain = 0
KSC1 250136Z 08003KT 12/M01 A3009 RMK A01 T01151011  RH  042%=      5-min Rain = 0
KSC1 250137Z 09003KT 11/M01 A301 RMK A01 T01141012  RH  042%=      5-min Rain = 0
KSC1 250138Z 09003KT 11/M01 A301 RMK A01 T01131012  RH  042%=      5-min Rain = 0
KSC1 250139Z 09004KT 11/M01 A301 RMK A01 T01131011  RH  042%=      5-min Rain = 0
KSC1 250140Z 08004KT 11/M01 A301 RMK A01 T01121011  RH  042%=      5-min Rain = 0
KSC1 250141Z 08004KT 11/M01 A301 RMK A01 T01121012  RH  042%=      5-min Rain = 0
KSC1 250142Z 08004KT 11/M01 A301 RMK A01 T01111012  RH  043%=      5-min Rain = 0
KSC1 250143Z 09003KT 11/M01 A301 RMK A01 T01101011  RH  043%=      5-min Rain = 0
KSC1 250144Z 08003KT 11/M01 A301 RMK A01 T01101010  RH  043%=      5-min Rain = 0
KSC1 250145Z 08004KT 11/M01 A301 RMK A01 T01101010  RH  043%=      5-min Rain = 0
KSC1 250146Z 08004KT 11/M01 A301 RMK A01 T01101010  RH  043%=      5-min Rain = 0
KSC1 250147Z 08004KT 11/M01 A301 RMK A01 T01101010  RH  043%=      5-min Rain = 0
KSC1 250148Z 08004KT 11/M01 A301 RMK A01 T01101009  RH  044%=      5-min Rain = 0
KSC1 250149Z 08004KT 11/M01 A301 RMK A01 T01101010  RH  044%=      5-min Rain = 0
KSC1 250150Z 09004KT 11/M01 A3011 RMK A01 T01101009  RH  044%=      5-min Rain = 0
KSC1 250151Z 09004KT 11/M01 A3011 RMK A01 T01101009  RH  044%=      5-min Rain = 0
KSC1 250152Z 09004KT 11/M01 A3011 RMK A01 T01111009  RH  044%=      5-min Rain = 0
KSC1 250153Z 09005KT 11/M01 A3011 RMK A01 T01111009  RH  044%=      5-min Rain = 0
KSC1 250154Z 09005KT 11/M01 A3011 RMK A01 T01101009  RH  044%=      5-min Rain = 0
KSC1 250155Z 08005KT 11/M01 A3011 RMK A01 T01091009  RH  044%=      5-min Rain = 0
KSC1 250156Z 08005KT 11/M01 A3011 RMK A01 T01081010  RH  044%=      5-min Rain = 0
KSC1 250157Z 07005KT 11/M01 A3011 RMK A01 T01081009  RH  044%=      5-min Rain = 0
KSC1 250158Z 06004KT 11/M01 A3011 RMK A01 T01081009  RH  044%=      5-min Rain = 0
KSC1 250159Z 06004KT 11/M01 A3011 RMK A01 T01071010  RH  044%=      5-min Rain = 0
KSC1 250200Z 06004KT 11/M01 A3011 RMK A01 T01071010  RH  044%=      5-min Rain = 0
KSC1 250201Z 06004KT 11/M01 A3011 RMK A01 T01071009  RH  044%=      5-min Rain = 0
KSC1 250202Z 06004KT 11/M01 A3011 RMK A01 T01071009  RH  044%=      5-min Rain = 0
KSC1 250203Z 06004KT 11/M01 A3012 RMK A01 T01071009  RH  044%=      5-min Rain = 0
KSC1 250204Z 06004KT 11/M01 A3012 RMK A01 T01071010  RH  044%=      5-min Rain = 0
KSC1 250205Z 06004KT 11/M01 A3012 RMK A01 T01081009  RH  044%=      5-min Rain = 0
KSC1 250206Z 06003KT 11/M01 A3012 RMK A01 T01071009  RH  044%=      5-min Rain = 0
KSC1 250207Z 06003KT 11/M01 A3012 RMK A01 T01071010  RH  044%=      5-min Rain = 0
KSC1 250208Z 05003KT 11/M01 A3012 RMK A01 T01061010  RH  044%=      5-min Rain = 0
KSC1 250209Z 05003KT 11/M01 A3012 RMK A01 T01051010  RH  045%=      5-min Rain = 0
KSC1 250210Z 05003KT 11/M01 A3012 RMK A01 T01051010  RH  045%=      5-min Rain = 0
KSC1 250211Z 06003KT 10/M01 A3012 RMK A01 T01041011  RH  045%=      5-min Rain = 0
KSC1 250212Z 06003KT 10/M01 A3012 RMK A01 T01021011  RH  045%=      5-min Rain = 0
KSC1 250213Z 06003KT 10/M01 A3012 RMK A01 T01011011  RH  046%=      5-min Rain = 0
KSC1 250214Z 06003KT 10/M01 A3012 RMK A01 T00991011  RH  046%=      5-min Rain = 0
KSC1 250215Z 06002KT 10/M01 A3012 RMK A01 T00991011  RH  046%=      5-min Rain = 0
KSC1 250216Z 06002KT 10/M01 A3012 RMK A01 T00981011  RH  047%=      5-min Rain = 0
KSC1 250217Z 06002KT 10/M01 A3012 RMK A01 T00981011  RH  047%=      5-min Rain = 0
KSC1 250218Z 06002KT 10/M01 A3012 RMK A01 T00981011  RH  047%=      5-min Rain = 0
KSC1 250219Z 06002KT 10/M01 A3012 RMK A01 T00971012  RH  047%=      5-min Rain = 0
KSC1 250220Z 06002KT 10/M01 A3012 RMK A01 T00951012  RH  047%=      5-min Rain = 0
KSC1 250221Z 06002KT 09/M01 A3012 RMK A01 T00941013  RH  047%=      5-min Rain = 0
KSC1 250222Z 05001KT 09/M01 A3012 RMK A01 T00931013  RH  047%=      5-min Rain = 0
KSC1 250223Z 06001KT 09/M01 A3012 RMK A01 T00911014  RH  048%=      5-min Rain = 0
KSC1 250224Z 07002KT 09/M02 A3012 RMK A01 T00901015  RH  048%=      5-min Rain = 0
KSC1 250225Z 07002KT 09/M02 A3012 RMK A01 T00881016  RH  048%=      5-min Rain = 0
KSC1 250226Z 08002KT 09/M02 A3012 RMK A01 T00851017  RH  049%=      5-min Rain = 0
KSC1 250227Z 07002KT 08/M02 A3012 RMK A01 T00831017  RH  049%=      5-min Rain = 0
KSC1 250228Z 08002KT 08/M02 A3012 RMK A01 T00811017  RH  050%=      5-min Rain = 0
KSC1 250229Z 08002KT 08/M02 A3012 RMK A01 T00791018  RH  050%=      5-min Rain = 0
KSC1 250230Z 07002KT 08/M02 A3012 RMK A01 T00781018  RH  051%=      5-min Rain = 0
KSC1 250231Z 08002KT 08/M02 A3012 RMK A01 T00761017  RH  051%=      5-min Rain = 0
KSC1 250232Z 08002KT 08/M02 A3012 RMK A01 T00761016  RH  052%=      5-min Rain = 0
KSC1 250233Z 08002KT 08/M02 A3012 RMK A01 T00761016  RH  052%=      5-min Rain = 0
KSC1 250234Z 09002KT 08/M02 A3012 RMK A01 T00761016  RH  052%=      5-min Rain = 0
KSC1 250235Z 08002KT 08/M02 A3012 RMK A01 T00751016  RH  052%=      5-min Rain = 0
KSC1 250236Z 08002KT 08/M02 A3012 RMK A01 T00751016  RH  053%=      5-min Rain = 0
KSC1 250237Z 09003KT 07/M02 A3012 RMK A01 T00741016  RH  053%=      5-min Rain = 0
KSC1 250238Z 09003KT 07/M02 A3012 RMK A01 T00741015  RH  053%=      5-min Rain = 0
KSC1 250239Z 09003KT 07/M02 A3012 RMK A01 T00741015  RH  053%=      5-min Rain = 0
KSC1 250240Z 09002KT 07/M01 A3013 RMK A01 T00741014  RH  054%=      5-min Rain = 0
KSC1 250241Z 08002KT 07/M02 A3013 RMK A01 T00731015  RH  053%=      5-min Rain = 0
KSC1 250242Z 08002KT 07/M02 A3013 RMK A01 T00731015  RH  054%=      5-min Rain = 0
KSC1 250243Z 08002KT 07/M01 A3013 RMK A01 T00721014  RH  054%=      5-min Rain = 0
KSC1 250244Z 08003KT 07/M01 A3013 RMK A01 T00731014  RH  054%=      5-min Rain = 0
KSC1 250245Z 08002KT 07/M01 A3013 RMK A01 T00731013  RH  054%=      5-min Rain = 0
KSC1 250246Z 08002KT 07/M01 A3013 RMK A01 T00741013  RH  054%=      5-min Rain = 0
KSC1 250247Z 07002KT 07/M01 A3013 RMK A01 T00741012  RH  054%=      5-min Rain = 0
KSC1 250248Z 07002KT 08/M01 A3013 RMK A01 T00761011  RH  054%=      5-min Rain = 0
KSC1 250249Z 08002KT 08/M01 A3013 RMK A01 T00771010  RH  054%=      5-min Rain = 0
KSC1 250250Z 09002KT 08/M01 A3014 RMK A01 T00791010  RH  054%=      5-min Rain = 0
KSC1 250251Z 09002KT 08/M01 A3014 RMK A01 T00811009  RH  053%=      5-min Rain = 0
KSC1 250252Z 09002KT 08/M01 A3014 RMK A01 T00831008  RH  053%=      5-min Rain = 0
KSC1 250253Z 09002KT 08/M01 A3014 RMK A01 T00841009  RH  052%=      5-min Rain = 0
KSC1 250254Z 09002KT 08/M01 A3014 RMK A01 T00831011  RH  052%=      5-min Rain = 0
KSC1 250255Z 09002KT 08/M01 A3014 RMK A01 T00811014  RH  051%=      5-min Rain = 0
KSC1 250256Z 10002KT 08/M01 A3014 RMK A01 T00781014  RH  052%=      5-min Rain = 0
KSC1 250257Z 10002KT 08/M01 A3014 RMK A01 T00771013  RH  053%=      5-min Rain = 0
KSC1 250258Z 10002KT 08/M01 A3014 RMK A01 T00771012  RH  053%=      5-min Rain = 0
KSC1 250259Z 09002KT 08/M01 A3014 RMK A01 T00771011  RH  054%=      5-min Rain = 0
KSC1 250300Z 09002KT 08/M01 A3014 RMK A01 T00771012  RH  053%=      5-min Rain = 0
KSC1 250301Z 08002KT 08/M01 A3014 RMK A01 T00771013  RH  053%=      5-min Rain = 0
KSC1 250302Z 08002KT 08/M01 A3014 RMK A01 T00771013  RH  053%=      5-min Rain = 0
KSC1 250303Z 08002KT 08/M01 A3014 RMK A01 T00761013  RH  053%=      5-min Rain = 0
KSC1 250304Z 08002KT 08/M01 A3014 RMK A01 T00751014  RH  053%=      5-min Rain = 0
KSC1 250305Z 08002KT 08/M01 A3014 RMK A01 T00751013  RH  054%=      5-min Rain = 0
KSC1 250306Z 08002KT 08/M01 A3014 RMK A01 T00751013  RH  054%=      5-min Rain = 0
KSC1 250307Z 08002KT 08/M01 A3014 RMK A01 T00751012  RH  054%=      5-min Rain = 0
KSC1 250308Z 09002KT 08/M01 A3014 RMK A01 T00761013  RH  054%=      5-min Rain = 0
KSC1 250309Z 09002KT 08/M01 A3014 RMK A01 T00761013  RH  054%=      5-min Rain = 0
KSC1 250310Z 09002KT 08/M01 A3014 RMK A01 T00751014  RH  053%=      5-min Rain = 0
KSC1 250311Z 09002KT 07/M02 A3014 RMK A01 T00741016  RH  053%=      5-min Rain = 0
KSC1 250312Z 09002KT 07/M02 A3014 RMK A01 T00721016  RH  054%=      5-min Rain = 0
KSC1 250313Z 09002KT 07/M02 A3013 RMK A01 T00701017  RH  054%=      5-min Rain = 0
KSC1 250314Z 09002KT 07/M02 A3013 RMK A01 T00701016  RH  055%=      5-min Rain = 0
KSC1 250315Z 08001KT 07/M02 A3013 RMK A01 T00691017  RH  054%=      5-min Rain = 0
KSC1 250316Z 08002KT 07/M02 A3013 RMK A01 T00681016  RH  055%=      5-min Rain = 0
KSC1 250317Z 08001KT 07/M02 A3014 RMK A01 T00681016  RH  055%=      5-min Rain = 0
KSC1 250318Z 07001KT 07/M02 A3014 RMK A01 T00691015  RH  055%=      5-min Rain = 0
KSC1 250319Z 07001KT 07/M02 A3014 RMK A01 T00691016  RH  055%=      5-min Rain = 0
KSC1 250320Z 07001KT 07/M02 A3014 RMK A01 T00691016  RH  055%=      5-min Rain = 0
KSC1 250321Z 07000KT 07/M02 A3014 RMK A01 T00681016  RH  055%=      5-min Rain = 0
KSC1 250322Z 06001KT 07/M02 A3014 RMK A01 T00681015  RH  055%=      5-min Rain = 0
KSC1 250323Z 06000KT 07/M02 A3014 RMK A01 T00681017  RH  055%=      5-min Rain = 0
KSC1 250324Z 06000KT 07/M02 A3014 RMK A01 T00651020  RH  054%=      5-min Rain = 0
KSC1 250325Z 06000KT 06/M02 A3014 RMK A01 T00631022  RH  055%=      5-min Rain = 0
KSC1 250326Z 06000KT 06/M02 A3014 RMK A01 T00601022  RH  056%=      5-min Rain = 0
KSC1 250327Z 08001KT 06/M02 A3014 RMK A01 T00601021  RH  056%=      5-min Rain = 0
KSC1 250328Z 04001KT 06/M02 A3014 RMK A01 T00581024  RH  056%=      5-min Rain = 0
KSC1 250329Z 04002KT 06/M02 A3014 RMK A01 T00561022  RH  057%=      5-min Rain = 0
KSC1 250330Z 01001KT 06/M02 A3014 RMK A01 T00571019  RH  058%=      5-min Rain = 0
KSC1 250331Z 01001KT 06/M02 A3014 RMK A01 T00571022  RH  057%=      5-min Rain = 0
KSC1 250332Z 02001KT 05/M02 A3014 RMK A01 T00541024  RH  057%=      5-min Rain = 0
KSC1 250333Z 02001KT 06/M02 A3014 RMK A01 T00551018  RH  059%=      5-min Rain = 0
KSC1 250334Z 02001KT 06/M02 A3014 RMK A01 T00571017  RH  059%=      5-min Rain = 0
KSC1 250335Z 02000KT 06/M02 A3015 RMK A01 T00591019  RH  058%=      5-min Rain = 0
KSC1 250336Z 01000KT 06/M02 A3015 RMK A01 T00571020  RH  057%=      5-min Rain = 0
KSC1 250337Z 35001KT 06/M02 A3015 RMK A01 T00571019  RH  058%=      5-min Rain = 0
KSC1 250338Z 35002KT 06/M02 A3015 RMK A01 T00571019  RH  058%=      5-min Rain = 0
KSC1 250339Z 00001KT 06/M02 A3015 RMK A01 T00571019  RH  058%=      5-min Rain = 0
KSC1 250340Z 00001KT 05/M03 A3015 RMK A01 T00541025  RH  057%=      5-min Rain = 0
KSC1 250341Z 00001KT 05/M03 A3015 RMK A01 T00501027  RH  058%=      5-min Rain = 0
KSC1 250342Z 00001KT 05/M03 A3015 RMK A01 T00481027  RH  059%=      5-min Rain = 0
KSC1 250343Z 00001KT 05/M03 A3014 RMK A01 T00461027  RH  059%=      5-min Rain = 0
KSC1 250344Z 00001KT 04/M03 A3015 RMK A01 T00441028  RH  059%=      5-min Rain = 0
KSC1 250345Z 00001KT 04/M03 A3015 RMK A01 T00421030  RH  060%=      5-min Rain = 0
KSC1 250346Z 00001KT 04/M03 A3015 RMK A01 T00401029  RH  060%=      5-min Rain = 0
KSC1 250347Z 00001KT 04/M03 A3015 RMK A01 T00391027  RH  062%=      5-min Rain = 0
KSC1 250348Z 00001KT 04/M03 A3015 RMK A01 T00401025  RH  062%=      5-min Rain = 0
KSC1 250349Z 00001KT 04/M03 A3015 RMK A01 T00411027  RH  061%=      5-min Rain = 0
KSC1 250350Z 00001KT 04/M03 A3015 RMK A01 T00401027  RH  061%=      5-min Rain = 0
KSC1 250351Z 00000KT 04/M03 A3015 RMK A01 T00391030  RH  061%=      5-min Rain = 0
KSC1 250352Z 00000KT 04/M03 A3015 RMK A01 T00371031  RH  061%=      5-min Rain = 0
KSC1 250353Z 00000KT 04/M03 A3015 RMK A01 T00351031  RH  062%=      5-min Rain = 0
KSC1 250354Z 34000KT 03/M03 A3015 RMK A01 T00341029  RH  063%=      5-min Rain = 0
KSC1 250355Z 32001KT 03/M03 A3015 RMK A01 T00341028  RH  064%=      5-min Rain = 0
KSC1 250356Z 29002KT 03/M03 A3015 RMK A01 T00341029  RH  064%=      5-min Rain = 0
KSC1 250357Z 28002KT 03/M03 A3015 RMK A01 T00341029  RH  063%=      5-min Rain = 0
KSC1 250358Z 28002KT 03/M03 A3015 RMK A01 T00331029  RH  064%=      5-min Rain = 0
KSC1 250359Z 28003KT 03/M03 A3015 RMK A01 T00331028  RH  064%=      5-min Rain = 0
KSC1 250400Z 28003KT 03/M03 A3015 RMK A01 T00341028  RH  064%=      5-min Rain = 0
KSC1 250401Z 28002KT 03/M03 A3015 RMK A01 T00331029  RH  063%=      5-min Rain = 0
KSC1 250402Z 28002KT 03/M03 A3015 RMK A01 T00321030  RH  064%=      5-min Rain = 0
KSC1 250403Z 28002KT 03/M03 A3015 RMK A01 T00311029  RH  065%=      5-min Rain = 0
KSC1 250404Z 28002KT 03/M03 A3015 RMK A01 T00321027  RH  065%=      5-min Rain = 0
KSC1 250405Z 29003KT 03/M03 A3015 RMK A01 T00331025  RH  066%=      5-min Rain = 0
KSC1 250406Z 30003KT 04/M02 A3015 RMK A01 T00361022  RH  066%=      5-min Rain = 0
KSC1 250407Z 30003KT 04/M02 A3015 RMK A01 T00381024  RH  064%=      5-min Rain = 0
KSC1 250408Z 29003KT 04/M03 A3015 RMK A01 T00371028  RH  063%=      5-min Rain = 0
KSC1 250409Z 29003KT 03/M03 A3015 RMK A01 T00321032  RH  063%=      5-min Rain = 0
KSC1 250410Z 30002KT 03/M03 A3015 RMK A01 T00291032  RH  064%=      5-min Rain = 0
KSC1 250411Z 29002KT 03/M03 A3015 RMK A01 T00291031  RH  065%=      5-min Rain = 0
KSC1 250412Z 29002KT 03/M03 A3015 RMK A01 T00281031  RH  065%=      5-min Rain = 0
KSC1 250413Z 29002KT 03/M03 A3015 RMK A01 T00271030  RH  066%=      5-min Rain = 0
KSC1 250414Z 29002KT 03/M03 A3015 RMK A01 T00281027  RH  067%=      5-min Rain = 0
KSC1 250415Z 29002KT 03/M03 A3015 RMK A01 T00301026  RH  067%=      5-min Rain = 0
KSC1 250416Z 29002KT 03/M03 A3015 RMK A01 T00311026  RH  067%=      5-min Rain = 0
KSC1 250417Z 29002KT 03/M03 A3015 RMK A01 T00311026  RH  066%=      5-min Rain = 0
KSC1 250418Z 29002KT 03/M03 A3016 RMK A01 T00311028  RH  065%=      5-min Rain = 0
KSC1 250419Z 29003KT 03/M03 A3016 RMK A01 T00301030  RH  065%=      5-min Rain = 0
KSC1 250420Z 29003KT 03/M03 A3016 RMK A01 T00291028  RH  066%=      5-min Rain = 0
KSC1 250421Z 30002KT 03/M03 A3016 RMK A01 T00291027  RH  067%=      5-min Rain = 0
KSC1 250422Z 30003KT 03/M03 A3016 RMK A01 T00291029  RH  066%=      5-min Rain = 0
KSC1 250423Z 30002KT 03/M03 A3016 RMK A01 T00281028  RH  067%=      5-min Rain = 0
KSC1 250424Z 29002KT 03/M03 A3016 RMK A01 T00281028  RH  067%=      5-min Rain = 0
KSC1 250425Z 29002KT 03/M03 A3016 RMK A01 T00261031  RH  066%=      5-min Rain = 0
KSC1 250426Z 30002KT 03/M03 A3016 RMK A01 T00251030  RH  067%=      5-min Rain = 0
KSC1 250427Z 30002KT 02/M03 A3016 RMK A01 T00241030  RH  068%=      5-min Rain = 0
KSC1 250428Z 30002KT 02/M03 A3016 RMK A01 T00241029  RH  068%=      5-min Rain = 0
KSC1 250429Z 30001KT 02/M03 A3016 RMK A01 T00241028  RH  068%=      5-min Rain = 0
KSC1 250430Z 30001KT 03/M03 A3016 RMK A01 T00251026  RH  069%=      5-min Rain = 0
KSC1 250431Z 29001KT 03/M03 A3016 RMK A01 T00261027  RH  068%=      5-min Rain = 0
KSC1 250432Z 28002KT 03/M03 A3016 RMK A01 T00251028  RH  068%=      5-min Rain = 0
KSC1 250433Z 28002KT 02/M03 A3016 RMK A01 T00241028  RH  068%=      5-min Rain = 0
KSC1 250434Z 28001KT 02/M03 A3016 RMK A01 T00241028  RH  069%=      5-min Rain = 0
KSC1 250435Z 28002KT 02/M03 A3016 RMK A01 T00241029  RH  068%=      5-min Rain = 0
KSC1 250436Z 28002KT 02/M03 A3016 RMK A01 T00231030  RH  068%=      5-min Rain = 0
KSC1 250437Z 28002KT 02/M03 A3016 RMK A01 T00221031  RH  068%=      5-min Rain = 0
KSC1 250438Z 28002KT 02/M03 A3016 RMK A01 T00211031  RH  069%=      5-min Rain = 0
KSC1 250439Z 28002KT 02/M03 A3016 RMK A01 T00201030  RH  069%=      5-min Rain = 0
KSC1 250440Z 28002KT 02/M03 A3017 RMK A01 T00201030  RH  070%=      5-min Rain = 0
KSC1 250441Z 28002KT 02/M03 A3017 RMK A01 T00201028  RH  070%=      5-min Rain = 0
KSC1 250442Z 28002KT 02/M02 A3017 RMK A01 T00231024  RH  071%=      5-min Rain = 0
KSC1 250443Z 28001KT 03/M02 A3017 RMK A01 T00291015  RH  072%=      5-min Rain = 0
KSC1 250444Z 28001KT 03/M02 A3017 RMK A01 T00341020  RH  068%=      5-min Rain = 0
KSC1 250445Z 29001KT 03/M02 A3017 RMK A01 T00321024  RH  066%=      5-min Rain = 0
KSC1 250446Z 31001KT 03/M02 A3017 RMK A01 T00321023  RH  067%=      5-min Rain = 0
KSC1 250447Z 35001KT 03/M03 A3017 RMK A01 T00311026  RH  066%=      5-min Rain = 0
KSC1 250448Z 33000KT 03/M03 A3017 RMK A01 T00301025  RH  067%=      5-min Rain = 0
KSC1 250449Z 33000KT 03/M03 A3017 RMK A01 T00301025  RH  067%=      5-min Rain = 0
KSC1 250450Z 00000KT 03/M03 A3017 RMK A01 T00271029  RH  067%=      5-min Rain = 0
KSC1 250451Z 00000KT 02/M03 A3017 RMK A01 T00241029  RH  068%=      5-min Rain = 0
KSC1 250452Z 33000KT 02/M03 A3017 RMK A01 T00231028  RH  069%=      5-min Rain = 0
KSC1 250453Z 00000KT 02/M03 A3017 RMK A01 T00231028  RH  069%=      5-min Rain = 0
KSC1 250454Z 00000KT 02/M03 A3017 RMK A01 T00231027  RH  070%=      5-min Rain = 0
KSC1 250455Z 31000KT 02/M03 A3017 RMK A01 T00231026  RH  070%=      5-min Rain = 0
KSC1 250456Z 33000KT 02/M03 A3017 RMK A01 T00231026  RH  070%=      5-min Rain = 0
KSC1 250457Z 36001KT 02/M03 A3017 RMK A01 T00241025  RH  070%=      5-min Rain = 0
KSC1 250458Z 00000KT 03/M03 A3017 RMK A01 T00251025  RH  070%=      5-min Rain = 0
KSC1 250459Z 01000KT 02/M03 A3017 RMK A01 T00241026  RH  069%=      5-min Rain = 0
KSC1 250500Z 00001KT 02/M03 A3017 RMK A01 T00241025  RH  070%=      5-min Rain = 0
KSC1 250501Z 33001KT 03/M02 A3017 RMK A01 T00261020  RH  071%=      5-min Rain = 0
KSC1 250502Z 35001KT 03/M02 A3017 RMK A01 T00271023  RH  070%=      5-min Rain = 0
KSC1 250503Z 34001KT 03/M02 A3017 RMK A01 T00271022  RH  070%=      5-min Rain = 0
KSC1 250504Z 34001KT 03/M02 A3017 RMK A01 T00291019  RH  071%=      5-min Rain = 0
KSC1 250505Z 34001KT 03/M01 A3017 RMK A01 T00341014  RH  070%=      5-min Rain = 0
KSC1 250506Z 34001KT 04/M02 A3017 RMK A01 T00371017  RH  068%=      5-min Rain = 0
KSC1 250507Z 34001KT 04/M02 A3016 RMK A01 T00351021  RH  067%=      5-min Rain = 0
KSC1 250508Z 35001KT 03/M02 A3016 RMK A01 T00341020  RH  068%=      5-min Rain = 0
KSC1 250509Z 34001KT 03/M02 A3016 RMK A01 T00331020  RH  068%=      5-min Rain = 0
KSC1 250510Z 35001KT 03/M02 A3016 RMK A01 T00331020  RH  069%=      5-min Rain = 0
KSC1 250511Z 00000KT 03/M02 A3017 RMK A01 T00341017  RH  069%=      5-min Rain = 0
KSC1 250512Z 35000KT 04/M02 A3017 RMK A01 T00351018  RH  068%=      5-min Rain = 0
KSC1 250513Z 34000KT 04/M02 A3016 RMK A01 T00351018  RH  069%=      5-min Rain = 0
KSC1 250514Z 00000KT 04/M02 A3016 RMK A01 T00361016  RH  068%=      5-min Rain = 0
KSC1 250515Z 00000KT 04/M02 A3016 RMK A01 T00371016  RH  068%=      5-min Rain = 0
KSC1 250516Z 00000KT 04/M01 A3016 RMK A01 T00391014  RH  069%=      5-min Rain = 0
KSC1 250517Z 05000KT 04/M01 A3016 RMK A01 T00391013  RH  068%=      5-min Rain = 0
KSC1 250518Z 05002KT 04/M01 A3016 RMK A01 T00411013  RH  068%=      5-min Rain = 0
KSC1 250519Z 01002KT 05/M01 A3016 RMK A01 T00461011  RH  067%=      5-min Rain = 0
KSC1 250520Z 03003KT 05/M01 A3016 RMK A01 T00491011  RH  065%=      5-min Rain = 0
KSC1 250521Z 03004KT 05/M01 A3016 RMK A01 T00501011  RH  065%=      5-min Rain = 0
KSC1 250522Z 04003KT 05/M01 A3016 RMK A01 T00511010  RH  064%=      5-min Rain = 0
KSC1 250523Z 04003KT 05/M01 A3016 RMK A01 T00541009  RH  064%=      5-min Rain = 0
KSC1 250524Z 06002KT 05/M01 A3016 RMK A01 T00541010  RH  063%=      5-min Rain = 0
KSC1 250525Z 07002KT 06/M01 A3016 RMK A01 T00551010  RH  063%=      5-min Rain = 0
KSC1 250526Z 05002KT 06/M01 A3016 RMK A01 T00561011  RH  062%=      5-min Rain = 0
KSC1 250527Z 06002KT 06/M01 A3016 RMK A01 T00591011  RH  061%=      5-min Rain = 0
KSC1 250528Z 06002KT 06/M01 A3016 RMK A01 T00621010  RH  060%=      5-min Rain = 0
KSC1 250529Z 04002KT 06/M01 A3016 RMK A01 T00631010  RH  059%=      5-min Rain = 0
KSC1 250530Z 04001KT 06/M01 A3016 RMK A01 T00641010  RH  059%=      5-min Rain = 0
KSC1 250531Z 06001KT 06/M01 A3016 RMK A01 T00641011  RH  059%=      5-min Rain = 0
KSC1 250532Z 05001KT 07/M01 A3016 RMK A01 T00661011  RH  058%=      5-min Rain = 0
KSC1 250533Z 03001KT 07/M01 A3016 RMK A01 T00671011  RH  057%=      5-min Rain = 0
KSC1 250534Z 01002KT 07/M01 A3016 RMK A01 T00691011  RH  057%=      5-min Rain = 0
KSC1 250535Z 03001KT 07/M01 A3016 RMK A01 T00701011  RH  056%=      5-min Rain = 0
KSC1 250536Z 03001KT 07/M01 A3016 RMK A01 T00701011  RH  056%=      5-min Rain = 0
KSC1 250537Z 03001KT 07/M01 A3016 RMK A01 T00681012  RH  057%=      5-min Rain = 0
KSC1 250538Z 03001KT 06/M01 A3016 RMK A01 T00641013  RH  058%=      5-min Rain = 0
KSC1 250539Z 03001KT 06/M01 A3016 RMK A01 T00601014  RH  059%=      5-min Rain = 0
KSC1 250540Z 03001KT 06/M01 A3016 RMK A01 T00571014  RH  060%=      5-min Rain = 0
KSC1 250541Z 03001KT 06/M01 A3016 RMK A01 T00561014  RH  061%=      5-min Rain = 0
KSC1 250542Z 03001KT 06/M01 A3016 RMK A01 T00561013  RH  061%=      5-min Rain = 0
KSC1 250543Z 03001KT 06/M01 A3016 RMK A01 T00561013  RH  061%=      5-min Rain = 0
KSC1 250544Z 03003KT 06/M01 A3016 RMK A01 T00551013  RH  062%=      5-min Rain = 0
KSC1 250545Z 04002KT 06/M01 A3016 RMK A01 T00551013  RH  061%=      5-min Rain = 0
KSC1 250546Z 04002KT 06/M01 A3016 RMK A01 T00551013  RH  062%=      5-min Rain = 0
KSC1 250547Z 04001KT 05/M01 A3016 RMK A01 T00521014  RH  062%=      5-min Rain = 0
KSC1 250548Z 04001KT 05/M01 A3016 RMK A01 T00511014  RH  063%=      5-min Rain = 0
KSC1 250549Z 04001KT 05/M01 A3016 RMK A01 T00511014  RH  063%=      5-min Rain = 0
KSC1 250550Z 04001KT 05/M02 A3016 RMK A01 T00501015  RH  063%=      5-min Rain = 0
KSC1 250551Z 04001KT 05/M02 A3016 RMK A01 T00501015  RH  063%=      5-min Rain = 0
KSC1 250552Z 04001KT 05/M02 A3016 RMK A01 T00501015  RH  063%=      5-min Rain = 0
KSC1 250553Z 05001KT 05/M02 A3016 RMK A01 T00481016  RH  063%=      5-min Rain = 0
KSC1 250554Z 08003KT 05/M02 A3016 RMK A01 T00481016  RH  064%=      5-min Rain = 0
KSC1 250555Z 07002KT 05/M02 A3016 RMK A01 T00481015  RH  063%=      5-min Rain = 0
KSC1 250556Z 08002KT 05/M02 A3016 RMK A01 T00491015  RH  063%=      5-min Rain = 0
KSC1 250557Z 08003KT 05/M01 A3016 RMK A01 T00531013  RH  063%=      5-min Rain = 0
KSC1 250558Z 07003KT 06/M01 A3016 RMK A01 T00581012  RH  061%=      5-min Rain = 0
KSC1 250559Z 08002KT 06/M01 A3016 RMK A01 T00601012  RH  060%=      5-min Rain = 0

Page generated in 0.1461 seconds.